<?xml version="1.0" encoding="UTF-8" standalone="no" ?>
<gpx xmlns="http://www.topografix.com/GPX/1/1" xmlns:xsi="http://www.w3.org/2001/XMLSchema-instance" xsi:schemaLocation="http://www.topografix.com/GPX/1/1 http://www.topografix.com/GPX/1/1/gpx.xsd" version="1.1" creator="VisuGPX - https://www.visugpx.com">
  <metadata>
    <name>La corniche du Chassezac à Paiolive</name>
    <desc><![CDATA[Le départ se fait du parking de l'Ermitage de St Eugène,sur la route d'Alès.
Une partie de cette rando se fait au milieu de la falaise. 
 Inutile de vous préciser qu'il ne faut pas avoir le vertige pour y aller. Le chemin est dangereux et il ne faut surtout pas y aller quand le sol est mouillé. Pour remonter de la corniche ,en direction de la Gleyzasse, il faut crapahuter.
Bonne rando !
]]></desc>
  </metadata>
  <trk>
    <name><![CDATA[CORNICHE]]></name>
    <trkseg>
      <trkpt lat="44.40167" lon="4.16417">
        <ele>247.68</ele>
        <time>2016-06-05T13:04:37Z</time>
      </trkpt>
      <trkpt lat="44.40167" lon="4.16417">
        <ele>248.16</ele>
        <time>2016-06-05T13:05:07Z</time>
      </trkpt>
      <trkpt lat="44.40163" lon="4.16416">
        <ele>248.16</ele>
        <time>2016-06-05T13:05:24Z</time>
      </trkpt>
      <trkpt lat="44.40151" lon="4.16411">
        <ele>248.64</ele>
        <time>2016-06-05T13:05:35Z</time>
      </trkpt>
      <trkpt lat="44.40142" lon="4.16412">
        <ele>248.16</ele>
        <time>2016-06-05T13:05:44Z</time>
      </trkpt>
      <trkpt lat="44.40135" lon="4.16418">
        <ele>249.6</ele>
        <time>2016-06-05T13:05:51Z</time>
      </trkpt>
      <trkpt lat="44.40129" lon="4.16431">
        <ele>249.12</ele>
        <time>2016-06-05T13:06:05Z</time>
      </trkpt>
      <trkpt lat="44.40128" lon="4.16432">
        <ele>248.64</ele>
        <time>2016-06-05T13:06:06Z</time>
      </trkpt>
      <trkpt lat="44.40126" lon="4.1644">
        <ele>248.64</ele>
        <time>2016-06-05T13:06:12Z</time>
      </trkpt>
      <trkpt lat="44.40122" lon="4.16456">
        <ele>249.12</ele>
        <time>2016-06-05T13:06:26Z</time>
      </trkpt>
      <trkpt lat="44.40119" lon="4.16475">
        <ele>249.12</ele>
        <time>2016-06-05T13:06:41Z</time>
      </trkpt>
      <trkpt lat="44.4012" lon="4.16483">
        <ele>248.64</ele>
        <time>2016-06-05T13:06:46Z</time>
      </trkpt>
      <trkpt lat="44.4012" lon="4.16485">
        <ele>249.12</ele>
        <time>2016-06-05T13:06:48Z</time>
      </trkpt>
      <trkpt lat="44.40119" lon="4.165">
        <ele>248.64</ele>
        <time>2016-06-05T13:06:59Z</time>
      </trkpt>
      <trkpt lat="44.40118" lon="4.16508">
        <ele>248.64</ele>
        <time>2016-06-05T13:07:04Z</time>
      </trkpt>
      <trkpt lat="44.40118" lon="4.16533">
        <ele>248.64</ele>
        <time>2016-06-05T13:07:19Z</time>
      </trkpt>
      <trkpt lat="44.40119" lon="4.16541">
        <ele>249.12</ele>
        <time>2016-06-05T13:07:24Z</time>
      </trkpt>
      <trkpt lat="44.40125" lon="4.16552">
        <ele>249.12</ele>
        <time>2016-06-05T13:07:34Z</time>
      </trkpt>
      <trkpt lat="44.40127" lon="4.16556">
        <ele>249.12</ele>
        <time>2016-06-05T13:07:37Z</time>
      </trkpt>
      <trkpt lat="44.40135" lon="4.16569">
        <ele>249.12</ele>
        <time>2016-06-05T13:07:48Z</time>
      </trkpt>
      <trkpt lat="44.40137" lon="4.16573">
        <ele>249.6</ele>
        <time>2016-06-05T13:07:51Z</time>
      </trkpt>
      <trkpt lat="44.4014" lon="4.16585">
        <ele>249.12</ele>
        <time>2016-06-05T13:07:59Z</time>
      </trkpt>
      <trkpt lat="44.40143" lon="4.16589">
        <ele>249.12</ele>
        <time>2016-06-05T13:08:03Z</time>
      </trkpt>
      <trkpt lat="44.40144" lon="4.16592">
        <ele>249.12</ele>
        <time>2016-06-05T13:08:05Z</time>
      </trkpt>
      <trkpt lat="44.40144" lon="4.16595">
        <ele>249.12</ele>
        <time>2016-06-05T13:08:07Z</time>
      </trkpt>
      <trkpt lat="44.40147" lon="4.166">
        <ele>249.12</ele>
        <time>2016-06-05T13:08:11Z</time>
      </trkpt>
      <trkpt lat="44.40147" lon="4.16603">
        <ele>249.12</ele>
        <time>2016-06-05T13:08:13Z</time>
      </trkpt>
      <trkpt lat="44.40154" lon="4.16612">
        <ele>249.6</ele>
        <time>2016-06-05T13:08:20Z</time>
      </trkpt>
      <trkpt lat="44.40157" lon="4.16621">
        <ele>249.6</ele>
        <time>2016-06-05T13:08:26Z</time>
      </trkpt>
      <trkpt lat="44.40159" lon="4.16625">
        <ele>250.08</ele>
        <time>2016-06-05T13:08:33Z</time>
      </trkpt>
      <trkpt lat="44.40161" lon="4.1663">
        <ele>249.6</ele>
        <time>2016-06-05T13:08:36Z</time>
      </trkpt>
      <trkpt lat="44.40161" lon="4.16633">
        <ele>250.08</ele>
        <time>2016-06-05T13:08:38Z</time>
      </trkpt>
      <trkpt lat="44.40164" lon="4.16645">
        <ele>250.08</ele>
        <time>2016-06-05T13:08:46Z</time>
      </trkpt>
      <trkpt lat="44.40165" lon="4.16649">
        <ele>250.08</ele>
        <time>2016-06-05T13:08:49Z</time>
      </trkpt>
      <trkpt lat="44.40167" lon="4.16659">
        <ele>250.08</ele>
        <time>2016-06-05T13:08:56Z</time>
      </trkpt>
      <trkpt lat="44.40171" lon="4.16668">
        <ele>250.08</ele>
        <time>2016-06-05T13:09:03Z</time>
      </trkpt>
      <trkpt lat="44.40175" lon="4.16676">
        <ele>250.08</ele>
        <time>2016-06-05T13:09:09Z</time>
      </trkpt>
      <trkpt lat="44.40176" lon="4.16683">
        <ele>250.56</ele>
        <time>2016-06-05T13:09:15Z</time>
      </trkpt>
      <trkpt lat="44.40177" lon="4.16687">
        <ele>250.56</ele>
        <time>2016-06-05T13:09:17Z</time>
      </trkpt>
      <trkpt lat="44.40176" lon="4.16694">
        <ele>250.56</ele>
        <time>2016-06-05T13:09:21Z</time>
      </trkpt>
      <trkpt lat="44.40175" lon="4.167">
        <ele>250.56</ele>
        <time>2016-06-05T13:09:25Z</time>
      </trkpt>
      <trkpt lat="44.40176" lon="4.16709">
        <ele>250.56</ele>
        <time>2016-06-05T13:09:30Z</time>
      </trkpt>
      <trkpt lat="44.4018" lon="4.16733">
        <ele>249.6</ele>
        <time>2016-06-05T13:09:46Z</time>
      </trkpt>
      <trkpt lat="44.4018" lon="4.16737">
        <ele>249.12</ele>
        <time>2016-06-05T13:09:49Z</time>
      </trkpt>
      <trkpt lat="44.40185" lon="4.16752">
        <ele>248.64</ele>
        <time>2016-06-05T13:09:59Z</time>
      </trkpt>
      <trkpt lat="44.40188" lon="4.1677">
        <ele>248.64</ele>
        <time>2016-06-05T13:10:10Z</time>
      </trkpt>
      <trkpt lat="44.40189" lon="4.16786">
        <ele>248.64</ele>
        <time>2016-06-05T13:10:21Z</time>
      </trkpt>
      <trkpt lat="44.4019" lon="4.16799">
        <ele>249.6</ele>
        <time>2016-06-05T13:10:31Z</time>
      </trkpt>
      <trkpt lat="44.4019" lon="4.16803">
        <ele>249.12</ele>
        <time>2016-06-05T13:10:33Z</time>
      </trkpt>
      <trkpt lat="44.4019" lon="4.16809">
        <ele>249.6</ele>
        <time>2016-06-05T13:10:37Z</time>
      </trkpt>
      <trkpt lat="44.40192" lon="4.16813">
        <ele>249.12</ele>
        <time>2016-06-05T13:10:41Z</time>
      </trkpt>
      <trkpt lat="44.40192" lon="4.16834">
        <ele>249.6</ele>
        <time>2016-06-05T13:10:54Z</time>
      </trkpt>
      <trkpt lat="44.40193" lon="4.16835">
        <ele>249.6</ele>
        <time>2016-06-05T13:10:55Z</time>
      </trkpt>
      <trkpt lat="44.40199" lon="4.16845">
        <ele>249.6</ele>
        <time>2016-06-05T13:11:02Z</time>
      </trkpt>
      <trkpt lat="44.40199" lon="4.16854">
        <ele>249.6</ele>
        <time>2016-06-05T13:11:08Z</time>
      </trkpt>
      <trkpt lat="44.40202" lon="4.16878">
        <ele>249.12</ele>
        <time>2016-06-05T13:11:24Z</time>
      </trkpt>
      <trkpt lat="44.40201" lon="4.16896">
        <ele>248.16</ele>
        <time>2016-06-05T13:11:37Z</time>
      </trkpt>
      <trkpt lat="44.40198" lon="4.16908">
        <ele>247.68</ele>
        <time>2016-06-05T13:11:45Z</time>
      </trkpt>
      <trkpt lat="44.40195" lon="4.1692">
        <ele>246.72</ele>
        <time>2016-06-05T13:11:53Z</time>
      </trkpt>
      <trkpt lat="44.40194" lon="4.16929">
        <ele>245.75</ele>
        <time>2016-06-05T13:12:00Z</time>
      </trkpt>
      <trkpt lat="44.4019" lon="4.16945">
        <ele>244.79</ele>
        <time>2016-06-05T13:12:10Z</time>
      </trkpt>
      <trkpt lat="44.40189" lon="4.16952">
        <ele>244.31</ele>
        <time>2016-06-05T13:12:26Z</time>
      </trkpt>
      <trkpt lat="44.40189" lon="4.16953">
        <ele>227.97</ele>
        <time>2016-06-05T13:12:34Z</time>
      </trkpt>
      <trkpt lat="44.40189" lon="4.16953">
        <ele>254.89</ele>
        <time>2016-06-05T13:12:35Z</time>
      </trkpt>
      <trkpt lat="44.40189" lon="4.16953">
        <ele>243.83</ele>
        <time>2016-06-05T13:12:36Z</time>
      </trkpt>
      <trkpt lat="44.40189" lon="4.16953">
        <ele>239.99</ele>
        <time>2016-06-05T13:12:37Z</time>
      </trkpt>
      <trkpt lat="44.40189" lon="4.16953">
        <ele>243.35</ele>
        <time>2016-06-05T13:12:38Z</time>
      </trkpt>
      <trkpt lat="44.40189" lon="4.16953">
        <ele>242.87</ele>
        <time>2016-06-05T13:13:07Z</time>
      </trkpt>
      <trkpt lat="44.4019" lon="4.16953">
        <ele>243.83</ele>
        <time>2016-06-05T13:13:32Z</time>
      </trkpt>
      <trkpt lat="44.40191" lon="4.16954">
        <ele>243.83</ele>
        <time>2016-06-05T13:13:42Z</time>
      </trkpt>
      <trkpt lat="44.40193" lon="4.16962">
        <ele>244.31</ele>
        <time>2016-06-05T13:13:52Z</time>
      </trkpt>
      <trkpt lat="44.40193" lon="4.16965">
        <ele>243.83</ele>
        <time>2016-06-05T13:14:02Z</time>
      </trkpt>
      <trkpt lat="44.40191" lon="4.16969">
        <ele>243.35</ele>
        <time>2016-06-05T13:14:13Z</time>
      </trkpt>
      <trkpt lat="44.40187" lon="4.16975">
        <ele>242.87</ele>
        <time>2016-06-05T13:14:24Z</time>
      </trkpt>
      <trkpt lat="44.40185" lon="4.16985">
        <ele>241.91</ele>
        <time>2016-06-05T13:14:34Z</time>
      </trkpt>
      <trkpt lat="44.40184" lon="4.16993">
        <ele>241.43</ele>
        <time>2016-06-05T13:14:40Z</time>
      </trkpt>
      <trkpt lat="44.40182" lon="4.16999">
        <ele>240.95</ele>
        <time>2016-06-05T13:14:45Z</time>
      </trkpt>
      <trkpt lat="44.40179" lon="4.17005">
        <ele>240.47</ele>
        <time>2016-06-05T13:14:57Z</time>
      </trkpt>
      <trkpt lat="44.40178" lon="4.17011">
        <ele>239.99</ele>
        <time>2016-06-05T13:15:01Z</time>
      </trkpt>
      <trkpt lat="44.40177" lon="4.17026">
        <ele>238.54</ele>
        <time>2016-06-05T13:15:14Z</time>
      </trkpt>
      <trkpt lat="44.40177" lon="4.17027">
        <ele>238.54</ele>
        <time>2016-06-05T13:15:15Z</time>
      </trkpt>
      <trkpt lat="44.40174" lon="4.17035">
        <ele>237.58</ele>
        <time>2016-06-05T13:15:22Z</time>
      </trkpt>
      <trkpt lat="44.40173" lon="4.1704">
        <ele>237.58</ele>
        <time>2016-06-05T13:15:25Z</time>
      </trkpt>
      <trkpt lat="44.40172" lon="4.17047">
        <ele>237.1</ele>
        <time>2016-06-05T13:15:30Z</time>
      </trkpt>
      <trkpt lat="44.40171" lon="4.17053">
        <ele>235.66</ele>
        <time>2016-06-05T13:15:35Z</time>
      </trkpt>
      <trkpt lat="44.40161" lon="4.17071">
        <ele>234.7</ele>
        <time>2016-06-05T13:15:53Z</time>
      </trkpt>
      <trkpt lat="44.40154" lon="4.17079">
        <ele>233.74</ele>
        <time>2016-06-05T13:16:03Z</time>
      </trkpt>
      <trkpt lat="44.40143" lon="4.17096">
        <ele>232.3</ele>
        <time>2016-06-05T13:16:18Z</time>
      </trkpt>
      <trkpt lat="44.40133" lon="4.1711">
        <ele>230.85</ele>
        <time>2016-06-05T13:16:33Z</time>
      </trkpt>
      <trkpt lat="44.40124" lon="4.17119">
        <ele>230.37</ele>
        <time>2016-06-05T13:16:45Z</time>
      </trkpt>
      <trkpt lat="44.40119" lon="4.17126">
        <ele>229.89</ele>
        <time>2016-06-05T13:16:51Z</time>
      </trkpt>
      <trkpt lat="44.40115" lon="4.1714">
        <ele>229.41</ele>
        <time>2016-06-05T13:17:02Z</time>
      </trkpt>
      <trkpt lat="44.40113" lon="4.17144">
        <ele>228.93</ele>
        <time>2016-06-05T13:17:15Z</time>
      </trkpt>
      <trkpt lat="44.40112" lon="4.17147">
        <ele>228.93</ele>
        <time>2016-06-05T13:17:18Z</time>
      </trkpt>
      <trkpt lat="44.40112" lon="4.17151">
        <ele>228.45</ele>
        <time>2016-06-05T13:17:31Z</time>
      </trkpt>
      <trkpt lat="44.4011" lon="4.17152">
        <ele>229.41</ele>
        <time>2016-06-05T13:17:52Z</time>
      </trkpt>
      <trkpt lat="44.4011" lon="4.17152">
        <ele>228.45</ele>
        <time>2016-06-05T13:18:17Z</time>
      </trkpt>
      <trkpt lat="44.4011" lon="4.17152">
        <ele>228.45</ele>
        <time>2016-06-05T13:18:44Z</time>
      </trkpt>
      <trkpt lat="44.40111" lon="4.17152">
        <ele>228.45</ele>
        <time>2016-06-05T13:19:10Z</time>
      </trkpt>
      <trkpt lat="44.40113" lon="4.17159">
        <ele>227.97</ele>
        <time>2016-06-05T13:19:21Z</time>
      </trkpt>
      <trkpt lat="44.40114" lon="4.17163">
        <ele>227.97</ele>
        <time>2016-06-05T13:19:24Z</time>
      </trkpt>
      <trkpt lat="44.40117" lon="4.17168">
        <ele>228.45</ele>
        <time>2016-06-05T13:19:29Z</time>
      </trkpt>
      <trkpt lat="44.40118" lon="4.17175">
        <ele>228.45</ele>
        <time>2016-06-05T13:19:34Z</time>
      </trkpt>
      <trkpt lat="44.40117" lon="4.17183">
        <ele>228.93</ele>
        <time>2016-06-05T13:19:41Z</time>
      </trkpt>
      <trkpt lat="44.40119" lon="4.17193">
        <ele>228.93</ele>
        <time>2016-06-05T13:19:51Z</time>
      </trkpt>
      <trkpt lat="44.40119" lon="4.17194">
        <ele>228.93</ele>
        <time>2016-06-05T13:19:53Z</time>
      </trkpt>
      <trkpt lat="44.4012" lon="4.17198">
        <ele>229.41</ele>
        <time>2016-06-05T13:19:56Z</time>
      </trkpt>
      <trkpt lat="44.40121" lon="4.17205">
        <ele>229.41</ele>
        <time>2016-06-05T13:20:00Z</time>
      </trkpt>
      <trkpt lat="44.40124" lon="4.17215">
        <ele>229.89</ele>
        <time>2016-06-05T13:20:10Z</time>
      </trkpt>
      <trkpt lat="44.40125" lon="4.17219">
        <ele>229.89</ele>
        <time>2016-06-05T13:20:13Z</time>
      </trkpt>
      <trkpt lat="44.40127" lon="4.17226">
        <ele>229.89</ele>
        <time>2016-06-05T13:20:18Z</time>
      </trkpt>
      <trkpt lat="44.40129" lon="4.17231">
        <ele>229.89</ele>
        <time>2016-06-05T13:20:22Z</time>
      </trkpt>
      <trkpt lat="44.40129" lon="4.17244">
        <ele>228.93</ele>
        <time>2016-06-05T13:20:32Z</time>
      </trkpt>
      <trkpt lat="44.40131" lon="4.17259">
        <ele>228.93</ele>
        <time>2016-06-05T13:20:42Z</time>
      </trkpt>
      <trkpt lat="44.40131" lon="4.17263">
        <ele>229.41</ele>
        <time>2016-06-05T13:20:45Z</time>
      </trkpt>
      <trkpt lat="44.40131" lon="4.17265">
        <ele>229.41</ele>
        <time>2016-06-05T13:20:47Z</time>
      </trkpt>
      <trkpt lat="44.40132" lon="4.17268">
        <ele>228.93</ele>
        <time>2016-06-05T13:20:49Z</time>
      </trkpt>
      <trkpt lat="44.40134" lon="4.1728">
        <ele>229.41</ele>
        <time>2016-06-05T13:20:56Z</time>
      </trkpt>
      <trkpt lat="44.40137" lon="4.17289">
        <ele>229.41</ele>
        <time>2016-06-05T13:21:02Z</time>
      </trkpt>
      <trkpt lat="44.4014" lon="4.173">
        <ele>230.37</ele>
        <time>2016-06-05T13:21:11Z</time>
      </trkpt>
      <trkpt lat="44.40142" lon="4.17315">
        <ele>231.33</ele>
        <time>2016-06-05T13:21:23Z</time>
      </trkpt>
      <trkpt lat="44.40146" lon="4.17316">
        <ele>231.33</ele>
        <time>2016-06-05T13:21:32Z</time>
      </trkpt>
      <trkpt lat="44.40155" lon="4.17316">
        <ele>231.33</ele>
        <time>2016-06-05T13:21:45Z</time>
      </trkpt>
      <trkpt lat="44.40163" lon="4.1732">
        <ele>231.81</ele>
        <time>2016-06-05T13:21:53Z</time>
      </trkpt>
      <trkpt lat="44.40164" lon="4.17319">
        <ele>231.81</ele>
        <time>2016-06-05T13:21:55Z</time>
      </trkpt>
      <trkpt lat="44.40173" lon="4.17324">
        <ele>231.81</ele>
        <time>2016-06-05T13:22:02Z</time>
      </trkpt>
      <trkpt lat="44.40188" lon="4.17328">
        <ele>232.3</ele>
        <time>2016-06-05T13:22:13Z</time>
      </trkpt>
      <trkpt lat="44.40193" lon="4.17329">
        <ele>232.78</ele>
        <time>2016-06-05T13:22:21Z</time>
      </trkpt>
      <trkpt lat="44.40201" lon="4.17331">
        <ele>232.78</ele>
        <time>2016-06-05T13:22:29Z</time>
      </trkpt>
      <trkpt lat="44.40215" lon="4.17343">
        <ele>233.26</ele>
        <time>2016-06-05T13:22:48Z</time>
      </trkpt>
      <trkpt lat="44.40217" lon="4.17345">
        <ele>233.26</ele>
        <time>2016-06-05T13:22:50Z</time>
      </trkpt>
      <trkpt lat="44.40222" lon="4.17348">
        <ele>233.26</ele>
        <time>2016-06-05T13:22:59Z</time>
      </trkpt>
      <trkpt lat="44.40223" lon="4.17351">
        <ele>233.26</ele>
        <time>2016-06-05T13:23:01Z</time>
      </trkpt>
      <trkpt lat="44.40227" lon="4.1737">
        <ele>232.3</ele>
        <time>2016-06-05T13:23:14Z</time>
      </trkpt>
      <trkpt lat="44.40228" lon="4.17381">
        <ele>231.81</ele>
        <time>2016-06-05T13:23:24Z</time>
      </trkpt>
      <trkpt lat="44.40228" lon="4.1739">
        <ele>231.81</ele>
        <time>2016-06-05T13:23:30Z</time>
      </trkpt>
      <trkpt lat="44.40225" lon="4.174">
        <ele>231.33</ele>
        <time>2016-06-05T13:23:44Z</time>
      </trkpt>
      <trkpt lat="44.40225" lon="4.17404">
        <ele>231.33</ele>
        <time>2016-06-05T13:24:01Z</time>
      </trkpt>
      <trkpt lat="44.40226" lon="4.17405">
        <ele>230.85</ele>
        <time>2016-06-05T13:24:21Z</time>
      </trkpt>
      <trkpt lat="44.40223" lon="4.1741">
        <ele>230.85</ele>
        <time>2016-06-05T13:24:34Z</time>
      </trkpt>
      <trkpt lat="44.40219" lon="4.17419">
        <ele>230.85</ele>
        <time>2016-06-05T13:24:47Z</time>
      </trkpt>
      <trkpt lat="44.40216" lon="4.17429">
        <ele>230.85</ele>
        <time>2016-06-05T13:25:00Z</time>
      </trkpt>
      <trkpt lat="44.40214" lon="4.1744">
        <ele>231.81</ele>
        <time>2016-06-05T13:25:11Z</time>
      </trkpt>
      <trkpt lat="44.4021" lon="4.17449">
        <ele>233.26</ele>
        <time>2016-06-05T13:25:20Z</time>
      </trkpt>
      <trkpt lat="44.40208" lon="4.17462">
        <ele>233.74</ele>
        <time>2016-06-05T13:25:30Z</time>
      </trkpt>
      <trkpt lat="44.40208" lon="4.17469">
        <ele>234.22</ele>
        <time>2016-06-05T13:25:36Z</time>
      </trkpt>
      <trkpt lat="44.40209" lon="4.17478">
        <ele>234.7</ele>
        <time>2016-06-05T13:25:42Z</time>
      </trkpt>
      <trkpt lat="44.40208" lon="4.17487">
        <ele>234.22</ele>
        <time>2016-06-05T13:25:48Z</time>
      </trkpt>
      <trkpt lat="44.40205" lon="4.175">
        <ele>234.22</ele>
        <time>2016-06-05T13:25:58Z</time>
      </trkpt>
      <trkpt lat="44.40204" lon="4.17505">
        <ele>234.22</ele>
        <time>2016-06-05T13:26:02Z</time>
      </trkpt>
      <trkpt lat="44.40199" lon="4.17519">
        <ele>233.26</ele>
        <time>2016-06-05T13:26:15Z</time>
      </trkpt>
      <trkpt lat="44.40197" lon="4.17525">
        <ele>232.78</ele>
        <time>2016-06-05T13:26:20Z</time>
      </trkpt>
      <trkpt lat="44.40198" lon="4.17536">
        <ele>232.3</ele>
        <time>2016-06-05T13:26:28Z</time>
      </trkpt>
      <trkpt lat="44.40204" lon="4.17548">
        <ele>231.81</ele>
        <time>2016-06-05T13:26:41Z</time>
      </trkpt>
      <trkpt lat="44.40208" lon="4.1756">
        <ele>230.85</ele>
        <time>2016-06-05T13:26:54Z</time>
      </trkpt>
      <trkpt lat="44.4021" lon="4.17563">
        <ele>230.37</ele>
        <time>2016-06-05T13:26:58Z</time>
      </trkpt>
      <trkpt lat="44.40219" lon="4.17575">
        <ele>229.41</ele>
        <time>2016-06-05T13:27:11Z</time>
      </trkpt>
      <trkpt lat="44.40226" lon="4.17582">
        <ele>228.45</ele>
        <time>2016-06-05T13:27:20Z</time>
      </trkpt>
      <trkpt lat="44.40237" lon="4.17595">
        <ele>228.45</ele>
        <time>2016-06-05T13:27:34Z</time>
      </trkpt>
      <trkpt lat="44.40241" lon="4.176">
        <ele>228.45</ele>
        <time>2016-06-05T13:27:41Z</time>
      </trkpt>
      <trkpt lat="44.40252" lon="4.17609">
        <ele>228.45</ele>
        <time>2016-06-05T13:27:55Z</time>
      </trkpt>
      <trkpt lat="44.40255" lon="4.17609">
        <ele>228.45</ele>
        <time>2016-06-05T13:27:58Z</time>
      </trkpt>
      <trkpt lat="44.40266" lon="4.1761">
        <ele>228.45</ele>
        <time>2016-06-05T13:28:09Z</time>
      </trkpt>
      <trkpt lat="44.40272" lon="4.17608">
        <ele>228.45</ele>
        <time>2016-06-05T13:28:14Z</time>
      </trkpt>
      <trkpt lat="44.40283" lon="4.176">
        <ele>228.93</ele>
        <time>2016-06-05T13:28:28Z</time>
      </trkpt>
      <trkpt lat="44.40294" lon="4.17593">
        <ele>229.89</ele>
        <time>2016-06-05T13:28:40Z</time>
      </trkpt>
      <trkpt lat="44.40297" lon="4.17593">
        <ele>229.89</ele>
        <time>2016-06-05T13:28:44Z</time>
      </trkpt>
      <trkpt lat="44.40306" lon="4.17602">
        <ele>230.85</ele>
        <time>2016-06-05T13:28:54Z</time>
      </trkpt>
      <trkpt lat="44.40312" lon="4.17609">
        <ele>231.33</ele>
        <time>2016-06-05T13:29:07Z</time>
      </trkpt>
      <trkpt lat="44.40317" lon="4.17618">
        <ele>231.81</ele>
        <time>2016-06-05T13:29:18Z</time>
      </trkpt>
      <trkpt lat="44.4032" lon="4.17623">
        <ele>232.78</ele>
        <time>2016-06-05T13:29:24Z</time>
      </trkpt>
      <trkpt lat="44.40327" lon="4.17634">
        <ele>233.74</ele>
        <time>2016-06-05T13:29:34Z</time>
      </trkpt>
      <trkpt lat="44.40327" lon="4.17635">
        <ele>234.22</ele>
        <time>2016-06-05T13:29:35Z</time>
      </trkpt>
      <trkpt lat="44.40332" lon="4.17647">
        <ele>236.14</ele>
        <time>2016-06-05T13:29:48Z</time>
      </trkpt>
      <trkpt lat="44.40338" lon="4.17654">
        <ele>238.06</ele>
        <time>2016-06-05T13:29:59Z</time>
      </trkpt>
      <trkpt lat="44.4034" lon="4.17655">
        <ele>238.54</ele>
        <time>2016-06-05T13:30:01Z</time>
      </trkpt>
      <trkpt lat="44.40345" lon="4.17655">
        <ele>238.06</ele>
        <time>2016-06-05T13:30:07Z</time>
      </trkpt>
      <trkpt lat="44.40351" lon="4.17652">
        <ele>238.54</ele>
        <time>2016-06-05T13:30:18Z</time>
      </trkpt>
      <trkpt lat="44.40354" lon="4.17652">
        <ele>239.02</ele>
        <time>2016-06-05T13:30:21Z</time>
      </trkpt>
      <trkpt lat="44.40359" lon="4.17659">
        <ele>239.99</ele>
        <time>2016-06-05T13:30:32Z</time>
      </trkpt>
      <trkpt lat="44.40366" lon="4.1767">
        <ele>240.47</ele>
        <time>2016-06-05T13:30:43Z</time>
      </trkpt>
      <trkpt lat="44.4037" lon="4.17678">
        <ele>240.47</ele>
        <time>2016-06-05T13:30:51Z</time>
      </trkpt>
      <trkpt lat="44.40373" lon="4.17686">
        <ele>240.95</ele>
        <time>2016-06-05T13:30:58Z</time>
      </trkpt>
      <trkpt lat="44.40382" lon="4.17697">
        <ele>241.91</ele>
        <time>2016-06-05T13:31:10Z</time>
      </trkpt>
      <trkpt lat="44.40383" lon="4.17708">
        <ele>242.39</ele>
        <time>2016-06-05T13:31:20Z</time>
      </trkpt>
      <trkpt lat="44.40383" lon="4.17715">
        <ele>241.91</ele>
        <time>2016-06-05T13:31:26Z</time>
      </trkpt>
      <trkpt lat="44.40382" lon="4.17729">
        <ele>240.47</ele>
        <time>2016-06-05T13:31:40Z</time>
      </trkpt>
      <trkpt lat="44.40377" lon="4.17735">
        <ele>239.51</ele>
        <time>2016-06-05T13:31:51Z</time>
      </trkpt>
      <trkpt lat="44.40373" lon="4.17747">
        <ele>239.02</ele>
        <time>2016-06-05T13:32:02Z</time>
      </trkpt>
      <trkpt lat="44.40371" lon="4.17759">
        <ele>236.62</ele>
        <time>2016-06-05T13:32:17Z</time>
      </trkpt>
      <trkpt lat="44.40371" lon="4.17768">
        <ele>235.66</ele>
        <time>2016-06-05T13:32:24Z</time>
      </trkpt>
      <trkpt lat="44.4037" lon="4.17776">
        <ele>235.66</ele>
        <time>2016-06-05T13:32:30Z</time>
      </trkpt>
      <trkpt lat="44.40371" lon="4.17779">
        <ele>236.14</ele>
        <time>2016-06-05T13:32:33Z</time>
      </trkpt>
      <trkpt lat="44.40373" lon="4.17785">
        <ele>236.62</ele>
        <time>2016-06-05T13:32:39Z</time>
      </trkpt>
      <trkpt lat="44.40373" lon="4.17788">
        <ele>236.62</ele>
        <time>2016-06-05T13:32:41Z</time>
      </trkpt>
      <trkpt lat="44.40373" lon="4.17794">
        <ele>236.62</ele>
        <time>2016-06-05T13:32:47Z</time>
      </trkpt>
      <trkpt lat="44.40368" lon="4.17796">
        <ele>236.62</ele>
        <time>2016-06-05T13:32:53Z</time>
      </trkpt>
      <trkpt lat="44.40369" lon="4.17806">
        <ele>236.62</ele>
        <time>2016-06-05T13:33:02Z</time>
      </trkpt>
      <trkpt lat="44.40367" lon="4.17814">
        <ele>237.1</ele>
        <time>2016-06-05T13:33:08Z</time>
      </trkpt>
      <trkpt lat="44.40366" lon="4.17816">
        <ele>237.1</ele>
        <time>2016-06-05T13:33:11Z</time>
      </trkpt>
      <trkpt lat="44.40368" lon="4.17829">
        <ele>236.62</ele>
        <time>2016-06-05T13:33:21Z</time>
      </trkpt>
      <trkpt lat="44.4036" lon="4.17843">
        <ele>237.58</ele>
        <time>2016-06-05T13:33:35Z</time>
      </trkpt>
      <trkpt lat="44.40359" lon="4.1785">
        <ele>238.06</ele>
        <time>2016-06-05T13:33:40Z</time>
      </trkpt>
      <trkpt lat="44.4036" lon="4.17854">
        <ele>237.58</ele>
        <time>2016-06-05T13:33:45Z</time>
      </trkpt>
      <trkpt lat="44.40362" lon="4.17864">
        <ele>237.58</ele>
        <time>2016-06-05T13:33:56Z</time>
      </trkpt>
      <trkpt lat="44.40362" lon="4.17874">
        <ele>237.1</ele>
        <time>2016-06-05T13:34:03Z</time>
      </trkpt>
      <trkpt lat="44.40361" lon="4.17883">
        <ele>237.1</ele>
        <time>2016-06-05T13:34:10Z</time>
      </trkpt>
      <trkpt lat="44.40363" lon="4.17896">
        <ele>237.1</ele>
        <time>2016-06-05T13:34:18Z</time>
      </trkpt>
      <trkpt lat="44.40364" lon="4.17904">
        <ele>237.58</ele>
        <time>2016-06-05T13:34:25Z</time>
      </trkpt>
      <trkpt lat="44.40376" lon="4.17912">
        <ele>238.06</ele>
        <time>2016-06-05T13:34:37Z</time>
      </trkpt>
      <trkpt lat="44.40382" lon="4.17915">
        <ele>238.54</ele>
        <time>2016-06-05T13:34:43Z</time>
      </trkpt>
      <trkpt lat="44.4039" lon="4.17917">
        <ele>239.51</ele>
        <time>2016-06-05T13:34:53Z</time>
      </trkpt>
      <trkpt lat="44.40393" lon="4.17917">
        <ele>239.51</ele>
        <time>2016-06-05T13:34:57Z</time>
      </trkpt>
      <trkpt lat="44.40399" lon="4.17926">
        <ele>239.51</ele>
        <time>2016-06-05T13:35:07Z</time>
      </trkpt>
      <trkpt lat="44.404" lon="4.17935">
        <ele>239.51</ele>
        <time>2016-06-05T13:35:23Z</time>
      </trkpt>
      <trkpt lat="44.404" lon="4.17936">
        <ele>239.51</ele>
        <time>2016-06-05T13:35:24Z</time>
      </trkpt>
      <trkpt lat="44.404" lon="4.17952">
        <ele>239.51</ele>
        <time>2016-06-05T13:35:36Z</time>
      </trkpt>
      <trkpt lat="44.404" lon="4.17954">
        <ele>239.51</ele>
        <time>2016-06-05T13:35:39Z</time>
      </trkpt>
      <trkpt lat="44.404" lon="4.17962">
        <ele>239.51</ele>
        <time>2016-06-05T13:35:44Z</time>
      </trkpt>
      <trkpt lat="44.404" lon="4.17975">
        <ele>239.02</ele>
        <time>2016-06-05T13:35:53Z</time>
      </trkpt>
      <trkpt lat="44.40401" lon="4.17981">
        <ele>239.02</ele>
        <time>2016-06-05T13:35:58Z</time>
      </trkpt>
      <trkpt lat="44.40401" lon="4.1799">
        <ele>239.51</ele>
        <time>2016-06-05T13:36:04Z</time>
      </trkpt>
      <trkpt lat="44.40402" lon="4.18003">
        <ele>239.99</ele>
        <time>2016-06-05T13:36:13Z</time>
      </trkpt>
      <trkpt lat="44.40402" lon="4.18016">
        <ele>241.43</ele>
        <time>2016-06-05T13:36:25Z</time>
      </trkpt>
      <trkpt lat="44.40402" lon="4.18032">
        <ele>243.35</ele>
        <time>2016-06-05T13:36:38Z</time>
      </trkpt>
      <trkpt lat="44.40403" lon="4.18043">
        <ele>245.27</ele>
        <time>2016-06-05T13:36:50Z</time>
      </trkpt>
      <trkpt lat="44.40405" lon="4.18054">
        <ele>247.2</ele>
        <time>2016-06-05T13:37:01Z</time>
      </trkpt>
      <trkpt lat="44.40405" lon="4.18055">
        <ele>247.68</ele>
        <time>2016-06-05T13:37:02Z</time>
      </trkpt>
      <trkpt lat="44.40403" lon="4.18065">
        <ele>249.6</ele>
        <time>2016-06-05T13:37:16Z</time>
      </trkpt>
      <trkpt lat="44.404" lon="4.18075">
        <ele>250.56</ele>
        <time>2016-06-05T13:37:27Z</time>
      </trkpt>
      <trkpt lat="44.40395" lon="4.18084">
        <ele>252.48</ele>
        <time>2016-06-05T13:37:40Z</time>
      </trkpt>
      <trkpt lat="44.40393" lon="4.18092">
        <ele>253.93</ele>
        <time>2016-06-05T13:37:50Z</time>
      </trkpt>
      <trkpt lat="44.40388" lon="4.18097">
        <ele>254.89</ele>
        <time>2016-06-05T13:37:58Z</time>
      </trkpt>
      <trkpt lat="44.40384" lon="4.18103">
        <ele>255.37</ele>
        <time>2016-06-05T13:38:08Z</time>
      </trkpt>
      <trkpt lat="44.4038" lon="4.18114">
        <ele>255.37</ele>
        <time>2016-06-05T13:38:23Z</time>
      </trkpt>
      <trkpt lat="44.40375" lon="4.18125">
        <ele>255.85</ele>
        <time>2016-06-05T13:38:32Z</time>
      </trkpt>
      <trkpt lat="44.40374" lon="4.18126">
        <ele>255.37</ele>
        <time>2016-06-05T13:38:33Z</time>
      </trkpt>
      <trkpt lat="44.40372" lon="4.18134">
        <ele>255.85</ele>
        <time>2016-06-05T13:38:40Z</time>
      </trkpt>
      <trkpt lat="44.40368" lon="4.18148">
        <ele>255.37</ele>
        <time>2016-06-05T13:38:55Z</time>
      </trkpt>
      <trkpt lat="44.40368" lon="4.18158">
        <ele>253.93</ele>
        <time>2016-06-05T13:39:08Z</time>
      </trkpt>
      <trkpt lat="44.40366" lon="4.18167">
        <ele>252.48</ele>
        <time>2016-06-05T13:39:20Z</time>
      </trkpt>
      <trkpt lat="44.40361" lon="4.18182">
        <ele>251.04</ele>
        <time>2016-06-05T13:39:31Z</time>
      </trkpt>
      <trkpt lat="44.4036" lon="4.18194">
        <ele>250.56</ele>
        <time>2016-06-05T13:39:42Z</time>
      </trkpt>
      <trkpt lat="44.4036" lon="4.18198">
        <ele>248.64</ele>
        <time>2016-06-05T13:39:51Z</time>
      </trkpt>
      <trkpt lat="44.40358" lon="4.18206">
        <ele>247.68</ele>
        <time>2016-06-05T13:40:02Z</time>
      </trkpt>
      <trkpt lat="44.40356" lon="4.18212">
        <ele>246.23</ele>
        <time>2016-06-05T13:40:16Z</time>
      </trkpt>
      <trkpt lat="44.40355" lon="4.18223">
        <ele>244.79</ele>
        <time>2016-06-05T13:40:29Z</time>
      </trkpt>
      <trkpt lat="44.40351" lon="4.18233">
        <ele>243.83</ele>
        <time>2016-06-05T13:40:39Z</time>
      </trkpt>
      <trkpt lat="44.40352" lon="4.18235">
        <ele>243.83</ele>
        <time>2016-06-05T13:40:43Z</time>
      </trkpt>
      <trkpt lat="44.40351" lon="4.18241">
        <ele>243.83</ele>
        <time>2016-06-05T13:40:48Z</time>
      </trkpt>
      <trkpt lat="44.40354" lon="4.18257">
        <ele>243.35</ele>
        <time>2016-06-05T13:41:02Z</time>
      </trkpt>
      <trkpt lat="44.40358" lon="4.18271">
        <ele>242.39</ele>
        <time>2016-06-05T13:41:14Z</time>
      </trkpt>
      <trkpt lat="44.40357" lon="4.18295">
        <ele>241.91</ele>
        <time>2016-06-05T13:41:29Z</time>
      </trkpt>
      <trkpt lat="44.40357" lon="4.183">
        <ele>241.91</ele>
        <time>2016-06-05T13:41:38Z</time>
      </trkpt>
      <trkpt lat="44.40359" lon="4.18311">
        <ele>242.39</ele>
        <time>2016-06-05T13:41:51Z</time>
      </trkpt>
      <trkpt lat="44.40362" lon="4.1832">
        <ele>242.87</ele>
        <time>2016-06-05T13:42:04Z</time>
      </trkpt>
      <trkpt lat="44.40374" lon="4.18321">
        <ele>243.83</ele>
        <time>2016-06-05T13:42:20Z</time>
      </trkpt>
      <trkpt lat="44.40374" lon="4.18321">
        <ele>243.83</ele>
        <time>2016-06-05T13:42:21Z</time>
      </trkpt>
      <trkpt lat="44.40386" lon="4.18318">
        <ele>243.83</ele>
        <time>2016-06-05T13:42:34Z</time>
      </trkpt>
      <trkpt lat="44.40395" lon="4.18335">
        <ele>245.75</ele>
        <time>2016-06-05T13:42:51Z</time>
      </trkpt>
      <trkpt lat="44.40397" lon="4.1834">
        <ele>246.23</ele>
        <time>2016-06-05T13:42:57Z</time>
      </trkpt>
      <trkpt lat="44.40396" lon="4.18354">
        <ele>245.75</ele>
        <time>2016-06-05T13:43:07Z</time>
      </trkpt>
      <trkpt lat="44.40406" lon="4.18371">
        <ele>245.27</ele>
        <time>2016-06-05T13:43:21Z</time>
      </trkpt>
      <trkpt lat="44.40407" lon="4.18377">
        <ele>245.27</ele>
        <time>2016-06-05T13:43:33Z</time>
      </trkpt>
      <trkpt lat="44.40407" lon="4.18377">
        <ele>245.75</ele>
        <time>2016-06-05T13:43:46Z</time>
      </trkpt>
      <trkpt lat="44.40407" lon="4.18385">
        <ele>244.79</ele>
        <time>2016-06-05T13:44:03Z</time>
      </trkpt>
      <trkpt lat="44.40405" lon="4.184">
        <ele>243.83</ele>
        <time>2016-06-05T13:44:17Z</time>
      </trkpt>
      <trkpt lat="44.40402" lon="4.1841">
        <ele>242.39</ele>
        <time>2016-06-05T13:44:30Z</time>
      </trkpt>
      <trkpt lat="44.40397" lon="4.18429">
        <ele>242.87</ele>
        <time>2016-06-05T13:44:43Z</time>
      </trkpt>
      <trkpt lat="44.40396" lon="4.18434">
        <ele>242.39</ele>
        <time>2016-06-05T13:44:53Z</time>
      </trkpt>
      <trkpt lat="44.40391" lon="4.18445">
        <ele>243.35</ele>
        <time>2016-06-05T13:45:05Z</time>
      </trkpt>
      <trkpt lat="44.40388" lon="4.18454">
        <ele>243.35</ele>
        <time>2016-06-05T13:45:16Z</time>
      </trkpt>
      <trkpt lat="44.40388" lon="4.18461">
        <ele>241.91</ele>
        <time>2016-06-05T13:45:30Z</time>
      </trkpt>
      <trkpt lat="44.40389" lon="4.18464">
        <ele>241.43</ele>
        <time>2016-06-05T13:45:40Z</time>
      </trkpt>
      <trkpt lat="44.40392" lon="4.18476">
        <ele>240.47</ele>
        <time>2016-06-05T13:45:51Z</time>
      </trkpt>
      <trkpt lat="44.40392" lon="4.18485">
        <ele>240.47</ele>
        <time>2016-06-05T13:46:03Z</time>
      </trkpt>
      <trkpt lat="44.40392" lon="4.18503">
        <ele>239.99</ele>
        <time>2016-06-05T13:46:16Z</time>
      </trkpt>
      <trkpt lat="44.40395" lon="4.18513">
        <ele>239.99</ele>
        <time>2016-06-05T13:46:27Z</time>
      </trkpt>
      <trkpt lat="44.40396" lon="4.18523">
        <ele>239.99</ele>
        <time>2016-06-05T13:46:34Z</time>
      </trkpt>
      <trkpt lat="44.40397" lon="4.18538">
        <ele>239.99</ele>
        <time>2016-06-05T13:46:47Z</time>
      </trkpt>
      <trkpt lat="44.40394" lon="4.18546">
        <ele>241.43</ele>
        <time>2016-06-05T13:46:59Z</time>
      </trkpt>
      <trkpt lat="44.40393" lon="4.18554">
        <ele>242.39</ele>
        <time>2016-06-05T13:47:09Z</time>
      </trkpt>
      <trkpt lat="44.40402" lon="4.18559">
        <ele>241.91</ele>
        <time>2016-06-05T13:47:23Z</time>
      </trkpt>
      <trkpt lat="44.40406" lon="4.18568">
        <ele>240.95</ele>
        <time>2016-06-05T13:47:36Z</time>
      </trkpt>
      <trkpt lat="44.4041" lon="4.18581">
        <ele>241.43</ele>
        <time>2016-06-05T13:47:50Z</time>
      </trkpt>
      <trkpt lat="44.40409" lon="4.18599">
        <ele>241.43</ele>
        <time>2016-06-05T13:48:03Z</time>
      </trkpt>
      <trkpt lat="44.40408" lon="4.18611">
        <ele>241.43</ele>
        <time>2016-06-05T13:48:14Z</time>
      </trkpt>
      <trkpt lat="44.40408" lon="4.18611">
        <ele>241.43</ele>
        <time>2016-06-05T13:48:16Z</time>
      </trkpt>
      <trkpt lat="44.40407" lon="4.18623">
        <ele>240.47</ele>
        <time>2016-06-05T13:48:25Z</time>
      </trkpt>
      <trkpt lat="44.40401" lon="4.18633">
        <ele>239.51</ele>
        <time>2016-06-05T13:48:39Z</time>
      </trkpt>
      <trkpt lat="44.40401" lon="4.18634">
        <ele>239.51</ele>
        <time>2016-06-05T13:48:42Z</time>
      </trkpt>
      <trkpt lat="44.40401" lon="4.18644">
        <ele>238.54</ele>
        <time>2016-06-05T13:48:57Z</time>
      </trkpt>
      <trkpt lat="44.4039" lon="4.1866">
        <ele>238.06</ele>
        <time>2016-06-05T13:49:12Z</time>
      </trkpt>
      <trkpt lat="44.40389" lon="4.18665">
        <ele>237.1</ele>
        <time>2016-06-05T13:49:22Z</time>
      </trkpt>
      <trkpt lat="44.4039" lon="4.18671">
        <ele>236.14</ele>
        <time>2016-06-05T13:49:34Z</time>
      </trkpt>
      <trkpt lat="44.40391" lon="4.1868">
        <ele>234.7</ele>
        <time>2016-06-05T13:49:47Z</time>
      </trkpt>
      <trkpt lat="44.40381" lon="4.18693">
        <ele>234.7</ele>
        <time>2016-06-05T13:50:02Z</time>
      </trkpt>
      <trkpt lat="44.40379" lon="4.18699">
        <ele>233.26</ele>
        <time>2016-06-05T13:50:16Z</time>
      </trkpt>
      <trkpt lat="44.40375" lon="4.18708">
        <ele>231.81</ele>
        <time>2016-06-05T13:50:32Z</time>
      </trkpt>
      <trkpt lat="44.40375" lon="4.18711">
        <ele>231.81</ele>
        <time>2016-06-05T13:50:34Z</time>
      </trkpt>
      <trkpt lat="44.40372" lon="4.1872">
        <ele>230.37</ele>
        <time>2016-06-05T13:50:45Z</time>
      </trkpt>
      <trkpt lat="44.40372" lon="4.18728">
        <ele>229.41</ele>
        <time>2016-06-05T13:50:58Z</time>
      </trkpt>
      <trkpt lat="44.4037" lon="4.18732">
        <ele>228.93</ele>
        <time>2016-06-05T13:51:08Z</time>
      </trkpt>
      <trkpt lat="44.4037" lon="4.18734">
        <ele>227.49</ele>
        <time>2016-06-05T13:51:22Z</time>
      </trkpt>
      <trkpt lat="44.40367" lon="4.1874">
        <ele>226.53</ele>
        <time>2016-06-05T13:51:40Z</time>
      </trkpt>
      <trkpt lat="44.40367" lon="4.18744">
        <ele>226.05</ele>
        <time>2016-06-05T13:51:47Z</time>
      </trkpt>
      <trkpt lat="44.40368" lon="4.18747">
        <ele>226.05</ele>
        <time>2016-06-05T13:51:51Z</time>
      </trkpt>
      <trkpt lat="44.40367" lon="4.1875">
        <ele>225.09</ele>
        <time>2016-06-05T13:51:55Z</time>
      </trkpt>
      <trkpt lat="44.40365" lon="4.18761">
        <ele>224.61</ele>
        <time>2016-06-05T13:52:09Z</time>
      </trkpt>
      <trkpt lat="44.40366" lon="4.18765">
        <ele>223.64</ele>
        <time>2016-06-05T13:52:20Z</time>
      </trkpt>
      <trkpt lat="44.40363" lon="4.18769">
        <ele>223.16</ele>
        <time>2016-06-05T13:52:30Z</time>
      </trkpt>
      <trkpt lat="44.40365" lon="4.18774">
        <ele>222.2</ele>
        <time>2016-06-05T13:52:41Z</time>
      </trkpt>
      <trkpt lat="44.40365" lon="4.18774">
        <ele>221.72</ele>
        <time>2016-06-05T13:52:42Z</time>
      </trkpt>
      <trkpt lat="44.40368" lon="4.18774">
        <ele>221.24</ele>
        <time>2016-06-05T13:52:53Z</time>
      </trkpt>
      <trkpt lat="44.40368" lon="4.18773">
        <ele>219.8</ele>
        <time>2016-06-05T13:53:09Z</time>
      </trkpt>
      <trkpt lat="44.40368" lon="4.18773">
        <ele>213.55</ele>
        <time>2016-06-05T13:53:14Z</time>
      </trkpt>
      <trkpt lat="44.40367" lon="4.18772">
        <ele>220.76</ele>
        <time>2016-06-05T13:53:15Z</time>
      </trkpt>
      <trkpt lat="44.40367" lon="4.18772">
        <ele>214.99</ele>
        <time>2016-06-05T13:53:16Z</time>
      </trkpt>
      <trkpt lat="44.40367" lon="4.18772">
        <ele>225.57</ele>
        <time>2016-06-05T13:53:17Z</time>
      </trkpt>
      <trkpt lat="44.40366" lon="4.18772">
        <ele>219.32</ele>
        <time>2016-06-05T13:53:18Z</time>
      </trkpt>
      <trkpt lat="44.40367" lon="4.1878">
        <ele>218.84</ele>
        <time>2016-06-05T13:53:29Z</time>
      </trkpt>
      <trkpt lat="44.40368" lon="4.18785">
        <ele>218.36</ele>
        <time>2016-06-05T13:53:41Z</time>
      </trkpt>
      <trkpt lat="44.40368" lon="4.18787">
        <ele>216.91</ele>
        <time>2016-06-05T13:53:53Z</time>
      </trkpt>
      <trkpt lat="44.40368" lon="4.18789">
        <ele>215.95</ele>
        <time>2016-06-05T13:54:08Z</time>
      </trkpt>
      <trkpt lat="44.40368" lon="4.18797">
        <ele>214.99</ele>
        <time>2016-06-05T13:54:20Z</time>
      </trkpt>
      <trkpt lat="44.40368" lon="4.18801">
        <ele>214.03</ele>
        <time>2016-06-05T13:54:32Z</time>
      </trkpt>
      <trkpt lat="44.40367" lon="4.18808">
        <ele>213.55</ele>
        <time>2016-06-05T13:54:47Z</time>
      </trkpt>
      <trkpt lat="44.40368" lon="4.18812">
        <ele>213.55</ele>
        <time>2016-06-05T13:55:08Z</time>
      </trkpt>
      <trkpt lat="44.40367" lon="4.18815">
        <ele>213.07</ele>
        <time>2016-06-05T13:55:22Z</time>
      </trkpt>
      <trkpt lat="44.40368" lon="4.18816">
        <ele>212.59</ele>
        <time>2016-06-05T13:55:34Z</time>
      </trkpt>
      <trkpt lat="44.40365" lon="4.18822">
        <ele>211.15</ele>
        <time>2016-06-05T13:55:48Z</time>
      </trkpt>
      <trkpt lat="44.40365" lon="4.18826">
        <ele>210.19</ele>
        <time>2016-06-05T13:55:56Z</time>
      </trkpt>
      <trkpt lat="44.40364" lon="4.18837">
        <ele>209.7</ele>
        <time>2016-06-05T13:56:07Z</time>
      </trkpt>
      <trkpt lat="44.40362" lon="4.18845">
        <ele>209.7</ele>
        <time>2016-06-05T13:56:20Z</time>
      </trkpt>
      <trkpt lat="44.40365" lon="4.18852">
        <ele>209.22</ele>
        <time>2016-06-05T13:56:31Z</time>
      </trkpt>
      <trkpt lat="44.40377" lon="4.18853">
        <ele>208.74</ele>
        <time>2016-06-05T13:56:42Z</time>
      </trkpt>
      <trkpt lat="44.4038" lon="4.18852">
        <ele>208.74</ele>
        <time>2016-06-05T13:56:46Z</time>
      </trkpt>
      <trkpt lat="44.40392" lon="4.18848">
        <ele>208.74</ele>
        <time>2016-06-05T13:56:59Z</time>
      </trkpt>
      <trkpt lat="44.40397" lon="4.18852">
        <ele>209.7</ele>
        <time>2016-06-05T13:57:09Z</time>
      </trkpt>
      <trkpt lat="44.40412" lon="4.18856">
        <ele>210.67</ele>
        <time>2016-06-05T13:57:20Z</time>
      </trkpt>
      <trkpt lat="44.40414" lon="4.18858">
        <ele>210.67</ele>
        <time>2016-06-05T13:57:23Z</time>
      </trkpt>
      <trkpt lat="44.40428" lon="4.18868">
        <ele>211.15</ele>
        <time>2016-06-05T13:57:37Z</time>
      </trkpt>
      <trkpt lat="44.40431" lon="4.1887">
        <ele>211.15</ele>
        <time>2016-06-05T13:57:41Z</time>
      </trkpt>
      <trkpt lat="44.40439" lon="4.18881">
        <ele>211.63</ele>
        <time>2016-06-05T13:57:51Z</time>
      </trkpt>
      <trkpt lat="44.4044" lon="4.18885">
        <ele>211.63</ele>
        <time>2016-06-05T13:57:56Z</time>
      </trkpt>
      <trkpt lat="44.40439" lon="4.18888">
        <ele>211.63</ele>
        <time>2016-06-05T13:57:58Z</time>
      </trkpt>
      <trkpt lat="44.40437" lon="4.18892">
        <ele>211.15</ele>
        <time>2016-06-05T13:58:02Z</time>
      </trkpt>
      <trkpt lat="44.40439" lon="4.18905">
        <ele>210.67</ele>
        <time>2016-06-05T13:58:12Z</time>
      </trkpt>
      <trkpt lat="44.40439" lon="4.1891">
        <ele>210.67</ele>
        <time>2016-06-05T13:58:18Z</time>
      </trkpt>
      <trkpt lat="44.40442" lon="4.18917">
        <ele>209.7</ele>
        <time>2016-06-05T13:58:26Z</time>
      </trkpt>
      <trkpt lat="44.40442" lon="4.18924">
        <ele>209.7</ele>
        <time>2016-06-05T13:58:32Z</time>
      </trkpt>
      <trkpt lat="44.40442" lon="4.18931">
        <ele>209.7</ele>
        <time>2016-06-05T13:58:39Z</time>
      </trkpt>
      <trkpt lat="44.40447" lon="4.18938">
        <ele>209.7</ele>
        <time>2016-06-05T13:58:48Z</time>
      </trkpt>
      <trkpt lat="44.40449" lon="4.18945">
        <ele>209.7</ele>
        <time>2016-06-05T13:58:53Z</time>
      </trkpt>
      <trkpt lat="44.40451" lon="4.18953">
        <ele>209.7</ele>
        <time>2016-06-05T13:59:06Z</time>
      </trkpt>
      <trkpt lat="44.4045" lon="4.18955">
        <ele>209.7</ele>
        <time>2016-06-05T13:59:17Z</time>
      </trkpt>
      <trkpt lat="44.40449" lon="4.18959">
        <ele>210.19</ele>
        <time>2016-06-05T13:59:37Z</time>
      </trkpt>
      <trkpt lat="44.4045" lon="4.18967">
        <ele>209.22</ele>
        <time>2016-06-05T13:59:49Z</time>
      </trkpt>
      <trkpt lat="44.4045" lon="4.18973">
        <ele>209.22</ele>
        <time>2016-06-05T13:59:55Z</time>
      </trkpt>
      <trkpt lat="44.40451" lon="4.18982">
        <ele>208.74</ele>
        <time>2016-06-05T14:00:04Z</time>
      </trkpt>
      <trkpt lat="44.4045" lon="4.18988">
        <ele>208.26</ele>
        <time>2016-06-05T14:00:08Z</time>
      </trkpt>
      <trkpt lat="44.40449" lon="4.18999">
        <ele>207.78</ele>
        <time>2016-06-05T14:00:19Z</time>
      </trkpt>
      <trkpt lat="44.40449" lon="4.1901">
        <ele>207.3</ele>
        <time>2016-06-05T14:00:31Z</time>
      </trkpt>
      <trkpt lat="44.40444" lon="4.19016">
        <ele>206.34</ele>
        <time>2016-06-05T14:00:41Z</time>
      </trkpt>
      <trkpt lat="44.40444" lon="4.19025">
        <ele>205.86</ele>
        <time>2016-06-05T14:00:54Z</time>
      </trkpt>
      <trkpt lat="44.40442" lon="4.19036">
        <ele>204.9</ele>
        <time>2016-06-05T14:01:05Z</time>
      </trkpt>
      <trkpt lat="44.40444" lon="4.1904">
        <ele>203.94</ele>
        <time>2016-06-05T14:01:19Z</time>
      </trkpt>
      <trkpt lat="44.40446" lon="4.19045">
        <ele>202.49</ele>
        <time>2016-06-05T14:01:35Z</time>
      </trkpt>
      <trkpt lat="44.40451" lon="4.1905">
        <ele>201.53</ele>
        <time>2016-06-05T14:01:48Z</time>
      </trkpt>
      <trkpt lat="44.40451" lon="4.19058">
        <ele>201.05</ele>
        <time>2016-06-05T14:01:59Z</time>
      </trkpt>
      <trkpt lat="44.40452" lon="4.1906">
        <ele>201.05</ele>
        <time>2016-06-05T14:02:01Z</time>
      </trkpt>
      <trkpt lat="44.40451" lon="4.19071">
        <ele>201.53</ele>
        <time>2016-06-05T14:02:15Z</time>
      </trkpt>
      <trkpt lat="44.40461" lon="4.1908">
        <ele>201.53</ele>
        <time>2016-06-05T14:02:29Z</time>
      </trkpt>
      <trkpt lat="44.40464" lon="4.19081">
        <ele>202.01</ele>
        <time>2016-06-05T14:02:43Z</time>
      </trkpt>
      <trkpt lat="44.40467" lon="4.1908">
        <ele>202.01</ele>
        <time>2016-06-05T14:03:01Z</time>
      </trkpt>
      <trkpt lat="44.40471" lon="4.19074">
        <ele>202.49</ele>
        <time>2016-06-05T14:03:16Z</time>
      </trkpt>
      <trkpt lat="44.40471" lon="4.19072">
        <ele>202.49</ele>
        <time>2016-06-05T14:03:40Z</time>
      </trkpt>
      <trkpt lat="44.40472" lon="4.19073">
        <ele>202.01</ele>
        <time>2016-06-05T14:03:57Z</time>
      </trkpt>
      <trkpt lat="44.40471" lon="4.19076">
        <ele>202.01</ele>
        <time>2016-06-05T14:04:12Z</time>
      </trkpt>
      <trkpt lat="44.40467" lon="4.1908">
        <ele>202.01</ele>
        <time>2016-06-05T14:04:26Z</time>
      </trkpt>
      <trkpt lat="44.40458" lon="4.19082">
        <ele>201.53</ele>
        <time>2016-06-05T14:04:42Z</time>
      </trkpt>
      <trkpt lat="44.40455" lon="4.19088">
        <ele>202.01</ele>
        <time>2016-06-05T14:04:55Z</time>
      </trkpt>
      <trkpt lat="44.4045" lon="4.19092">
        <ele>201.53</ele>
        <time>2016-06-05T14:05:09Z</time>
      </trkpt>
      <trkpt lat="44.40443" lon="4.19092">
        <ele>199.61</ele>
        <time>2016-06-05T14:05:24Z</time>
      </trkpt>
      <trkpt lat="44.40439" lon="4.19093">
        <ele>198.17</ele>
        <time>2016-06-05T14:05:40Z</time>
      </trkpt>
      <trkpt lat="44.40427" lon="4.19092">
        <ele>196.73</ele>
        <time>2016-06-05T14:05:54Z</time>
      </trkpt>
      <trkpt lat="44.40411" lon="4.19085">
        <ele>196.25</ele>
        <time>2016-06-05T14:06:09Z</time>
      </trkpt>
      <trkpt lat="44.404" lon="4.1908">
        <ele>196.25</ele>
        <time>2016-06-05T14:06:28Z</time>
      </trkpt>
      <trkpt lat="44.40393" lon="4.19077">
        <ele>197.21</ele>
        <time>2016-06-05T14:06:42Z</time>
      </trkpt>
      <trkpt lat="44.40387" lon="4.19076">
        <ele>197.69</ele>
        <time>2016-06-05T14:06:56Z</time>
      </trkpt>
      <trkpt lat="44.40385" lon="4.19075">
        <ele>197.69</ele>
        <time>2016-06-05T14:07:15Z</time>
      </trkpt>
      <trkpt lat="44.40377" lon="4.19075">
        <ele>199.13</ele>
        <time>2016-06-05T14:07:29Z</time>
      </trkpt>
      <trkpt lat="44.40371" lon="4.19079">
        <ele>199.13</ele>
        <time>2016-06-05T14:07:42Z</time>
      </trkpt>
      <trkpt lat="44.40371" lon="4.19084">
        <ele>195.28</ele>
        <time>2016-06-05T14:07:55Z</time>
      </trkpt>
      <trkpt lat="44.40371" lon="4.19084">
        <ele>199.61</ele>
        <time>2016-06-05T14:07:56Z</time>
      </trkpt>
      <trkpt lat="44.40367" lon="4.19092">
        <ele>197.69</ele>
        <time>2016-06-05T14:08:04Z</time>
      </trkpt>
      <trkpt lat="44.4036" lon="4.19096">
        <ele>197.69</ele>
        <time>2016-06-05T14:08:19Z</time>
      </trkpt>
      <trkpt lat="44.40354" lon="4.19097">
        <ele>196.73</ele>
        <time>2016-06-05T14:08:33Z</time>
      </trkpt>
      <trkpt lat="44.40351" lon="4.19099">
        <ele>195.77</ele>
        <time>2016-06-05T14:08:47Z</time>
      </trkpt>
      <trkpt lat="44.40349" lon="4.19101">
        <ele>194.8</ele>
        <time>2016-06-05T14:09:01Z</time>
      </trkpt>
      <trkpt lat="44.40349" lon="4.19102">
        <ele>194.32</ele>
        <time>2016-06-05T14:09:21Z</time>
      </trkpt>
      <trkpt lat="44.40345" lon="4.19101">
        <ele>194.32</ele>
        <time>2016-06-05T14:09:35Z</time>
      </trkpt>
      <trkpt lat="44.40341" lon="4.19099">
        <ele>193.84</ele>
        <time>2016-06-05T14:09:45Z</time>
      </trkpt>
      <trkpt lat="44.4034" lon="4.191">
        <ele>193.36</ele>
        <time>2016-06-05T14:10:13Z</time>
      </trkpt>
      <trkpt lat="44.4034" lon="4.19101">
        <ele>192.88</ele>
        <time>2016-06-05T14:10:24Z</time>
      </trkpt>
      <trkpt lat="44.40335" lon="4.19102">
        <ele>191.92</ele>
        <time>2016-06-05T14:10:38Z</time>
      </trkpt>
      <trkpt lat="44.40334" lon="4.19102">
        <ele>190.96</ele>
        <time>2016-06-05T14:10:57Z</time>
      </trkpt>
      <trkpt lat="44.40331" lon="4.19101">
        <ele>190.48</ele>
        <time>2016-06-05T14:11:09Z</time>
      </trkpt>
      <trkpt lat="44.40327" lon="4.19099">
        <ele>190.48</ele>
        <time>2016-06-05T14:11:18Z</time>
      </trkpt>
      <trkpt lat="44.40326" lon="4.19097">
        <ele>190.96</ele>
        <time>2016-06-05T14:11:31Z</time>
      </trkpt>
      <trkpt lat="44.40325" lon="4.19097">
        <ele>190.48</ele>
        <time>2016-06-05T14:11:45Z</time>
      </trkpt>
      <trkpt lat="44.40317" lon="4.19096">
        <ele>190</ele>
        <time>2016-06-05T14:11:56Z</time>
      </trkpt>
      <trkpt lat="44.40311" lon="4.19095">
        <ele>190</ele>
        <time>2016-06-05T14:12:12Z</time>
      </trkpt>
      <trkpt lat="44.40308" lon="4.19096">
        <ele>190</ele>
        <time>2016-06-05T14:12:27Z</time>
      </trkpt>
      <trkpt lat="44.40302" lon="4.19094">
        <ele>186.15</ele>
        <time>2016-06-05T14:12:44Z</time>
      </trkpt>
      <trkpt lat="44.40301" lon="4.19095">
        <ele>190.48</ele>
        <time>2016-06-05T14:12:45Z</time>
      </trkpt>
      <trkpt lat="44.40298" lon="4.19098">
        <ele>186.15</ele>
        <time>2016-06-05T14:12:54Z</time>
      </trkpt>
      <trkpt lat="44.40298" lon="4.19099">
        <ele>185.67</ele>
        <time>2016-06-05T14:12:55Z</time>
      </trkpt>
      <trkpt lat="44.40298" lon="4.191">
        <ele>193.36</ele>
        <time>2016-06-05T14:12:56Z</time>
      </trkpt>
      <trkpt lat="44.40297" lon="4.19101">
        <ele>191.92</ele>
        <time>2016-06-05T14:12:57Z</time>
      </trkpt>
      <trkpt lat="44.40297" lon="4.19104">
        <ele>190.48</ele>
        <time>2016-06-05T14:12:59Z</time>
      </trkpt>
      <trkpt lat="44.40297" lon="4.19105">
        <ele>190.96</ele>
        <time>2016-06-05T14:13:00Z</time>
      </trkpt>
      <trkpt lat="44.40299" lon="4.19108">
        <ele>190</ele>
        <time>2016-06-05T14:13:04Z</time>
      </trkpt>
      <trkpt lat="44.40296" lon="4.19101">
        <ele>189.04</ele>
        <time>2016-06-05T14:13:21Z</time>
      </trkpt>
      <trkpt lat="44.40293" lon="4.19089">
        <ele>189.52</ele>
        <time>2016-06-05T14:13:38Z</time>
      </trkpt>
      <trkpt lat="44.40293" lon="4.19092">
        <ele>189.52</ele>
        <time>2016-06-05T14:13:56Z</time>
      </trkpt>
      <trkpt lat="44.40293" lon="4.19095">
        <ele>189.52</ele>
        <time>2016-06-05T14:14:11Z</time>
      </trkpt>
      <trkpt lat="44.40291" lon="4.19096">
        <ele>190</ele>
        <time>2016-06-05T14:14:25Z</time>
      </trkpt>
      <trkpt lat="44.40282" lon="4.1909">
        <ele>189.04</ele>
        <time>2016-06-05T14:14:38Z</time>
      </trkpt>
      <trkpt lat="44.40283" lon="4.19084">
        <ele>189.52</ele>
        <time>2016-06-05T14:14:52Z</time>
      </trkpt>
      <trkpt lat="44.4028" lon="4.19079">
        <ele>190.48</ele>
        <time>2016-06-05T14:15:06Z</time>
      </trkpt>
      <trkpt lat="44.40281" lon="4.19077">
        <ele>190</ele>
        <time>2016-06-05T14:15:27Z</time>
      </trkpt>
      <trkpt lat="44.40278" lon="4.19066">
        <ele>190.96</ele>
        <time>2016-06-05T14:15:43Z</time>
      </trkpt>
      <trkpt lat="44.40272" lon="4.19065">
        <ele>191.44</ele>
        <time>2016-06-05T14:15:56Z</time>
      </trkpt>
      <trkpt lat="44.40269" lon="4.19062">
        <ele>191.44</ele>
        <time>2016-06-05T14:16:07Z</time>
      </trkpt>
      <trkpt lat="44.40271" lon="4.19068">
        <ele>190.96</ele>
        <time>2016-06-05T14:16:27Z</time>
      </trkpt>
      <trkpt lat="44.4027" lon="4.19069">
        <ele>189.52</ele>
        <time>2016-06-05T14:16:42Z</time>
      </trkpt>
      <trkpt lat="44.40263" lon="4.19069">
        <ele>189.52</ele>
        <time>2016-06-05T14:16:52Z</time>
      </trkpt>
      <trkpt lat="44.4026" lon="4.1907">
        <ele>189.04</ele>
        <time>2016-06-05T14:17:04Z</time>
      </trkpt>
      <trkpt lat="44.40259" lon="4.19071">
        <ele>189.04</ele>
        <time>2016-06-05T14:17:18Z</time>
      </trkpt>
      <trkpt lat="44.40253" lon="4.19069">
        <ele>187.59</ele>
        <time>2016-06-05T14:17:34Z</time>
      </trkpt>
      <trkpt lat="44.40252" lon="4.19069">
        <ele>182.79</ele>
        <time>2016-06-05T14:17:43Z</time>
      </trkpt>
      <trkpt lat="44.40252" lon="4.19069">
        <ele>190.96</ele>
        <time>2016-06-05T14:17:44Z</time>
      </trkpt>
      <trkpt lat="44.40252" lon="4.19069">
        <ele>187.11</ele>
        <time>2016-06-05T14:17:48Z</time>
      </trkpt>
      <trkpt lat="44.4025" lon="4.1907">
        <ele>186.63</ele>
        <time>2016-06-05T14:18:08Z</time>
      </trkpt>
      <trkpt lat="44.40249" lon="4.19071">
        <ele>187.59</ele>
        <time>2016-06-05T14:18:27Z</time>
      </trkpt>
      <trkpt lat="44.40248" lon="4.1907">
        <ele>187.59</ele>
        <time>2016-06-05T14:18:50Z</time>
      </trkpt>
      <trkpt lat="44.40246" lon="4.19071">
        <ele>186.63</ele>
        <time>2016-06-05T14:19:05Z</time>
      </trkpt>
      <trkpt lat="44.40242" lon="4.19071">
        <ele>187.11</ele>
        <time>2016-06-05T14:19:21Z</time>
      </trkpt>
      <trkpt lat="44.40241" lon="4.1907">
        <ele>186.63</ele>
        <time>2016-06-05T14:19:43Z</time>
      </trkpt>
      <trkpt lat="44.40233" lon="4.19074">
        <ele>185.67</ele>
        <time>2016-06-05T14:19:54Z</time>
      </trkpt>
      <trkpt lat="44.40231" lon="4.19073">
        <ele>185.67</ele>
        <time>2016-06-05T14:19:56Z</time>
      </trkpt>
      <trkpt lat="44.40231" lon="4.1907">
        <ele>185.67</ele>
        <time>2016-06-05T14:20:07Z</time>
      </trkpt>
      <trkpt lat="44.4023" lon="4.19066">
        <ele>185.19</ele>
        <time>2016-06-05T14:20:33Z</time>
      </trkpt>
      <trkpt lat="44.40229" lon="4.19065">
        <ele>185.19</ele>
        <time>2016-06-05T14:20:46Z</time>
      </trkpt>
      <trkpt lat="44.40221" lon="4.19069">
        <ele>184.71</ele>
        <time>2016-06-05T14:20:58Z</time>
      </trkpt>
      <trkpt lat="44.40221" lon="4.19072">
        <ele>184.71</ele>
        <time>2016-06-05T14:21:15Z</time>
      </trkpt>
      <trkpt lat="44.40217" lon="4.1907">
        <ele>183.75</ele>
        <time>2016-06-05T14:21:30Z</time>
      </trkpt>
      <trkpt lat="44.40214" lon="4.19066">
        <ele>182.31</ele>
        <time>2016-06-05T14:21:46Z</time>
      </trkpt>
      <trkpt lat="44.4021" lon="4.19067">
        <ele>182.31</ele>
        <time>2016-06-05T14:21:59Z</time>
      </trkpt>
      <trkpt lat="44.40208" lon="4.19064">
        <ele>183.27</ele>
        <time>2016-06-05T14:22:16Z</time>
      </trkpt>
      <trkpt lat="44.40205" lon="4.19062">
        <ele>184.23</ele>
        <time>2016-06-05T14:22:28Z</time>
      </trkpt>
      <trkpt lat="44.40205" lon="4.19062">
        <ele>184.71</ele>
        <time>2016-06-05T14:22:39Z</time>
      </trkpt>
      <trkpt lat="44.40205" lon="4.19068">
        <ele>183.75</ele>
        <time>2016-06-05T14:22:43Z</time>
      </trkpt>
      <trkpt lat="44.40204" lon="4.19068">
        <ele>184.71</ele>
        <time>2016-06-05T14:22:58Z</time>
      </trkpt>
      <trkpt lat="44.40202" lon="4.19065">
        <ele>183.75</ele>
        <time>2016-06-05T14:23:16Z</time>
      </trkpt>
      <trkpt lat="44.40203" lon="4.19059">
        <ele>184.71</ele>
        <time>2016-06-05T14:23:39Z</time>
      </trkpt>
      <trkpt lat="44.40207" lon="4.1906">
        <ele>186.63</ele>
        <time>2016-06-05T14:23:57Z</time>
      </trkpt>
      <trkpt lat="44.40207" lon="4.19055">
        <ele>188.08</ele>
        <time>2016-06-05T14:24:15Z</time>
      </trkpt>
      <trkpt lat="44.40207" lon="4.19056">
        <ele>187.59</ele>
        <time>2016-06-05T14:24:36Z</time>
      </trkpt>
      <trkpt lat="44.40207" lon="4.19055">
        <ele>189.52</ele>
        <time>2016-06-05T14:25:00Z</time>
      </trkpt>
      <trkpt lat="44.40206" lon="4.19053">
        <ele>191.44</ele>
        <time>2016-06-05T14:25:19Z</time>
      </trkpt>
      <trkpt lat="44.40201" lon="4.19045">
        <ele>194.32</ele>
        <time>2016-06-05T14:25:40Z</time>
      </trkpt>
      <trkpt lat="44.40201" lon="4.19045">
        <ele>194.8</ele>
        <time>2016-06-05T14:25:59Z</time>
      </trkpt>
      <trkpt lat="44.40202" lon="4.19046">
        <ele>197.21</ele>
        <time>2016-06-05T14:26:20Z</time>
      </trkpt>
      <trkpt lat="44.40204" lon="4.1904">
        <ele>198.65</ele>
        <time>2016-06-05T14:26:40Z</time>
      </trkpt>
      <trkpt lat="44.40204" lon="4.1904">
        <ele>198.65</ele>
        <time>2016-06-05T14:27:04Z</time>
      </trkpt>
      <trkpt lat="44.40202" lon="4.19042">
        <ele>199.13</ele>
        <time>2016-06-05T14:27:26Z</time>
      </trkpt>
      <trkpt lat="44.40203" lon="4.1904">
        <ele>202.01</ele>
        <time>2016-06-05T14:27:34Z</time>
      </trkpt>
      <trkpt lat="44.40203" lon="4.1904">
        <ele>202.49</ele>
        <time>2016-06-05T14:27:53Z</time>
      </trkpt>
      <trkpt lat="44.40202" lon="4.19037">
        <ele>203.94</ele>
        <time>2016-06-05T14:28:16Z</time>
      </trkpt>
      <trkpt lat="44.40202" lon="4.19033">
        <ele>204.9</ele>
        <time>2016-06-05T14:28:39Z</time>
      </trkpt>
      <trkpt lat="44.40201" lon="4.19031">
        <ele>206.34</ele>
        <time>2016-06-05T14:28:59Z</time>
      </trkpt>
      <trkpt lat="44.40207" lon="4.19037">
        <ele>208.26</ele>
        <time>2016-06-05T14:29:20Z</time>
      </trkpt>
      <trkpt lat="44.40205" lon="4.19034">
        <ele>209.7</ele>
        <time>2016-06-05T14:29:40Z</time>
      </trkpt>
      <trkpt lat="44.40206" lon="4.19022">
        <ele>209.7</ele>
        <time>2016-06-05T14:29:59Z</time>
      </trkpt>
      <trkpt lat="44.40208" lon="4.19022">
        <ele>209.7</ele>
        <time>2016-06-05T14:30:21Z</time>
      </trkpt>
      <trkpt lat="44.402" lon="4.19027">
        <ele>210.19</ele>
        <time>2016-06-05T14:30:39Z</time>
      </trkpt>
      <trkpt lat="44.402" lon="4.19029">
        <ele>211.63</ele>
        <time>2016-06-05T14:30:56Z</time>
      </trkpt>
      <trkpt lat="44.40201" lon="4.19029">
        <ele>211.63</ele>
        <time>2016-06-05T14:31:16Z</time>
      </trkpt>
      <trkpt lat="44.40201" lon="4.1903">
        <ele>212.11</ele>
        <time>2016-06-05T14:31:36Z</time>
      </trkpt>
      <trkpt lat="44.40201" lon="4.1903">
        <ele>213.55</ele>
        <time>2016-06-05T14:31:55Z</time>
      </trkpt>
      <trkpt lat="44.40203" lon="4.19024">
        <ele>214.51</ele>
        <time>2016-06-05T14:32:15Z</time>
      </trkpt>
      <trkpt lat="44.40199" lon="4.19034">
        <ele>213.07</ele>
        <time>2016-06-05T14:32:46Z</time>
      </trkpt>
      <trkpt lat="44.40197" lon="4.1903">
        <ele>214.51</ele>
        <time>2016-06-05T14:33:08Z</time>
      </trkpt>
      <trkpt lat="44.402" lon="4.19022">
        <ele>214.99</ele>
        <time>2016-06-05T14:33:28Z</time>
      </trkpt>
      <trkpt lat="44.40206" lon="4.19021">
        <ele>213.07</ele>
        <time>2016-06-05T14:34:11Z</time>
      </trkpt>
      <trkpt lat="44.40209" lon="4.19032">
        <ele>211.15</ele>
        <time>2016-06-05T14:34:31Z</time>
      </trkpt>
      <trkpt lat="44.40207" lon="4.19035">
        <ele>210.19</ele>
        <time>2016-06-05T14:34:45Z</time>
      </trkpt>
      <trkpt lat="44.40213" lon="4.19046">
        <ele>210.67</ele>
        <time>2016-06-05T14:34:57Z</time>
      </trkpt>
      <trkpt lat="44.40207" lon="4.19048">
        <ele>210.67</ele>
        <time>2016-06-05T14:35:14Z</time>
      </trkpt>
      <trkpt lat="44.40208" lon="4.19061">
        <ele>212.11</ele>
        <time>2016-06-05T14:35:35Z</time>
      </trkpt>
      <trkpt lat="44.40219" lon="4.19064">
        <ele>212.59</ele>
        <time>2016-06-05T14:35:56Z</time>
      </trkpt>
      <trkpt lat="44.40221" lon="4.19063">
        <ele>211.63</ele>
        <time>2016-06-05T14:36:09Z</time>
      </trkpt>
      <trkpt lat="44.40222" lon="4.19057">
        <ele>211.63</ele>
        <time>2016-06-05T14:36:27Z</time>
      </trkpt>
      <trkpt lat="44.40216" lon="4.19049">
        <ele>210.67</ele>
        <time>2016-06-05T14:36:38Z</time>
      </trkpt>
      <trkpt lat="44.40212" lon="4.19036">
        <ele>211.63</ele>
        <time>2016-06-05T14:36:50Z</time>
      </trkpt>
      <trkpt lat="44.40209" lon="4.19033">
        <ele>212.11</ele>
        <time>2016-06-05T14:37:07Z</time>
      </trkpt>
      <trkpt lat="44.40205" lon="4.19033">
        <ele>212.11</ele>
        <time>2016-06-05T14:37:37Z</time>
      </trkpt>
      <trkpt lat="44.40204" lon="4.19032">
        <ele>212.11</ele>
        <time>2016-06-05T14:38:00Z</time>
      </trkpt>
      <trkpt lat="44.40204" lon="4.19034">
        <ele>211.15</ele>
        <time>2016-06-05T14:38:21Z</time>
      </trkpt>
      <trkpt lat="44.40204" lon="4.19035">
        <ele>211.63</ele>
        <time>2016-06-05T14:38:41Z</time>
      </trkpt>
      <trkpt lat="44.40206" lon="4.1904">
        <ele>211.63</ele>
        <time>2016-06-05T14:39:02Z</time>
      </trkpt>
      <trkpt lat="44.40208" lon="4.19041">
        <ele>211.63</ele>
        <time>2016-06-05T14:39:22Z</time>
      </trkpt>
      <trkpt lat="44.4021" lon="4.19042">
        <ele>211.63</ele>
        <time>2016-06-05T14:39:43Z</time>
      </trkpt>
      <trkpt lat="44.40208" lon="4.19034">
        <ele>212.59</ele>
        <time>2016-06-05T14:39:57Z</time>
      </trkpt>
      <trkpt lat="44.40206" lon="4.19033">
        <ele>213.07</ele>
        <time>2016-06-05T14:40:15Z</time>
      </trkpt>
      <trkpt lat="44.40205" lon="4.19032">
        <ele>213.55</ele>
        <time>2016-06-05T14:40:42Z</time>
      </trkpt>
      <trkpt lat="44.40205" lon="4.19029">
        <ele>214.51</ele>
        <time>2016-06-05T14:40:54Z</time>
      </trkpt>
      <trkpt lat="44.40202" lon="4.19026">
        <ele>214.99</ele>
        <time>2016-06-05T14:41:24Z</time>
      </trkpt>
      <trkpt lat="44.40177" lon="4.19006">
        <ele>216.91</ele>
        <time>2016-06-05T14:42:05Z</time>
      </trkpt>
      <trkpt lat="44.40194" lon="4.19001">
        <ele>218.84</ele>
        <time>2016-06-05T14:42:28Z</time>
      </trkpt>
      <trkpt lat="44.402" lon="4.18999">
        <ele>219.32</ele>
        <time>2016-06-05T14:42:50Z</time>
      </trkpt>
      <trkpt lat="44.40195" lon="4.19001">
        <ele>220.28</ele>
        <time>2016-06-05T14:43:08Z</time>
      </trkpt>
      <trkpt lat="44.40202" lon="4.19">
        <ele>222.2</ele>
        <time>2016-06-05T14:43:29Z</time>
      </trkpt>
      <trkpt lat="44.40214" lon="4.1899">
        <ele>224.61</ele>
        <time>2016-06-05T14:43:52Z</time>
      </trkpt>
      <trkpt lat="44.40216" lon="4.18987">
        <ele>226.53</ele>
        <time>2016-06-05T14:44:18Z</time>
      </trkpt>
      <trkpt lat="44.40218" lon="4.18982">
        <ele>228.45</ele>
        <time>2016-06-05T14:44:32Z</time>
      </trkpt>
      <trkpt lat="44.40219" lon="4.18976">
        <ele>230.37</ele>
        <time>2016-06-05T14:44:50Z</time>
      </trkpt>
      <trkpt lat="44.40221" lon="4.18973">
        <ele>230.37</ele>
        <time>2016-06-05T14:45:14Z</time>
      </trkpt>
      <trkpt lat="44.40221" lon="4.18973">
        <ele>229.89</ele>
        <time>2016-06-05T14:45:37Z</time>
      </trkpt>
      <trkpt lat="44.4022" lon="4.18976">
        <ele>230.37</ele>
        <time>2016-06-05T14:46:03Z</time>
      </trkpt>
      <trkpt lat="44.40219" lon="4.18977">
        <ele>230.37</ele>
        <time>2016-06-05T14:46:32Z</time>
      </trkpt>
      <trkpt lat="44.40219" lon="4.18975">
        <ele>230.85</ele>
        <time>2016-06-05T14:46:59Z</time>
      </trkpt>
      <trkpt lat="44.4022" lon="4.18977">
        <ele>230.37</ele>
        <time>2016-06-05T14:47:22Z</time>
      </trkpt>
      <trkpt lat="44.40221" lon="4.18978">
        <ele>230.37</ele>
        <time>2016-06-05T14:47:44Z</time>
      </trkpt>
      <trkpt lat="44.40222" lon="4.18978">
        <ele>230.37</ele>
        <time>2016-06-05T14:48:20Z</time>
      </trkpt>
      <trkpt lat="44.40221" lon="4.18977">
        <ele>230.85</ele>
        <time>2016-06-05T14:48:45Z</time>
      </trkpt>
      <trkpt lat="44.4022" lon="4.18977">
        <ele>231.33</ele>
        <time>2016-06-05T14:49:10Z</time>
      </trkpt>
      <trkpt lat="44.4022" lon="4.18975">
        <ele>230.85</ele>
        <time>2016-06-05T14:49:27Z</time>
      </trkpt>
      <trkpt lat="44.40219" lon="4.18974">
        <ele>231.33</ele>
        <time>2016-06-05T14:49:47Z</time>
      </trkpt>
      <trkpt lat="44.4022" lon="4.18973">
        <ele>231.33</ele>
        <time>2016-06-05T14:50:05Z</time>
      </trkpt>
      <trkpt lat="44.40224" lon="4.1897">
        <ele>230.85</ele>
        <time>2016-06-05T14:50:18Z</time>
      </trkpt>
      <trkpt lat="44.40227" lon="4.18965">
        <ele>230.37</ele>
        <time>2016-06-05T14:50:29Z</time>
      </trkpt>
      <trkpt lat="44.40229" lon="4.18962">
        <ele>229.89</ele>
        <time>2016-06-05T14:50:41Z</time>
      </trkpt>
      <trkpt lat="44.4023" lon="4.18959">
        <ele>228.93</ele>
        <time>2016-06-05T14:50:55Z</time>
      </trkpt>
      <trkpt lat="44.40233" lon="4.18951">
        <ele>227.49</ele>
        <time>2016-06-05T14:51:08Z</time>
      </trkpt>
      <trkpt lat="44.40239" lon="4.18932">
        <ele>226.53</ele>
        <time>2016-06-05T14:51:23Z</time>
      </trkpt>
      <trkpt lat="44.40235" lon="4.18925">
        <ele>226.53</ele>
        <time>2016-06-05T14:51:35Z</time>
      </trkpt>
      <trkpt lat="44.40235" lon="4.1891">
        <ele>227.97</ele>
        <time>2016-06-05T14:51:48Z</time>
      </trkpt>
      <trkpt lat="44.40228" lon="4.18908">
        <ele>229.89</ele>
        <time>2016-06-05T14:52:01Z</time>
      </trkpt>
      <trkpt lat="44.40224" lon="4.18902">
        <ele>229.89</ele>
        <time>2016-06-05T14:52:12Z</time>
      </trkpt>
      <trkpt lat="44.40216" lon="4.18889">
        <ele>229.89</ele>
        <time>2016-06-05T14:52:25Z</time>
      </trkpt>
      <trkpt lat="44.40213" lon="4.1888">
        <ele>230.37</ele>
        <time>2016-06-05T14:52:36Z</time>
      </trkpt>
      <trkpt lat="44.40211" lon="4.18872">
        <ele>230.85</ele>
        <time>2016-06-05T14:53:04Z</time>
      </trkpt>
      <trkpt lat="44.40211" lon="4.18861">
        <ele>232.3</ele>
        <time>2016-06-05T14:53:17Z</time>
      </trkpt>
      <trkpt lat="44.40211" lon="4.18851">
        <ele>234.22</ele>
        <time>2016-06-05T14:53:29Z</time>
      </trkpt>
      <trkpt lat="44.40209" lon="4.18839">
        <ele>235.66</ele>
        <time>2016-06-05T14:53:43Z</time>
      </trkpt>
      <trkpt lat="44.40209" lon="4.18826">
        <ele>236.14</ele>
        <time>2016-06-05T14:53:56Z</time>
      </trkpt>
      <trkpt lat="44.40206" lon="4.18813">
        <ele>237.1</ele>
        <time>2016-06-05T14:54:07Z</time>
      </trkpt>
      <trkpt lat="44.40205" lon="4.18794">
        <ele>238.54</ele>
        <time>2016-06-05T14:54:21Z</time>
      </trkpt>
      <trkpt lat="44.40207" lon="4.18782">
        <ele>239.99</ele>
        <time>2016-06-05T14:54:34Z</time>
      </trkpt>
      <trkpt lat="44.40209" lon="4.18768">
        <ele>241.43</ele>
        <time>2016-06-05T14:54:47Z</time>
      </trkpt>
      <trkpt lat="44.40203" lon="4.1876">
        <ele>239.99</ele>
        <time>2016-06-05T14:55:00Z</time>
      </trkpt>
      <trkpt lat="44.40202" lon="4.18758">
        <ele>239.99</ele>
        <time>2016-06-05T14:55:02Z</time>
      </trkpt>
      <trkpt lat="44.40189" lon="4.18745">
        <ele>239.99</ele>
        <time>2016-06-05T14:55:17Z</time>
      </trkpt>
      <trkpt lat="44.40185" lon="4.18736">
        <ele>240.47</ele>
        <time>2016-06-05T14:55:28Z</time>
      </trkpt>
      <trkpt lat="44.40175" lon="4.18725">
        <ele>239.51</ele>
        <time>2016-06-05T14:55:41Z</time>
      </trkpt>
      <trkpt lat="44.40166" lon="4.18718">
        <ele>238.54</ele>
        <time>2016-06-05T14:55:54Z</time>
      </trkpt>
      <trkpt lat="44.40161" lon="4.18715">
        <ele>237.1</ele>
        <time>2016-06-05T14:56:11Z</time>
      </trkpt>
      <trkpt lat="44.40153" lon="4.18708">
        <ele>235.66</ele>
        <time>2016-06-05T14:56:23Z</time>
      </trkpt>
      <trkpt lat="44.40147" lon="4.18704">
        <ele>233.74</ele>
        <time>2016-06-05T14:56:37Z</time>
      </trkpt>
      <trkpt lat="44.40139" lon="4.187">
        <ele>232.78</ele>
        <time>2016-06-05T14:56:50Z</time>
      </trkpt>
      <trkpt lat="44.4013" lon="4.18698">
        <ele>230.85</ele>
        <time>2016-06-05T14:57:02Z</time>
      </trkpt>
      <trkpt lat="44.40123" lon="4.18695">
        <ele>230.37</ele>
        <time>2016-06-05T14:57:14Z</time>
      </trkpt>
      <trkpt lat="44.4012" lon="4.18694">
        <ele>229.89</ele>
        <time>2016-06-05T14:57:16Z</time>
      </trkpt>
      <trkpt lat="44.40105" lon="4.18684">
        <ele>229.89</ele>
        <time>2016-06-05T14:57:31Z</time>
      </trkpt>
      <trkpt lat="44.40099" lon="4.18671">
        <ele>231.33</ele>
        <time>2016-06-05T14:57:43Z</time>
      </trkpt>
      <trkpt lat="44.40093" lon="4.18659">
        <ele>232.78</ele>
        <time>2016-06-05T14:57:54Z</time>
      </trkpt>
      <trkpt lat="44.4009" lon="4.18649">
        <ele>233.74</ele>
        <time>2016-06-05T14:58:07Z</time>
      </trkpt>
      <trkpt lat="44.40088" lon="4.18635">
        <ele>231.81</ele>
        <time>2016-06-05T14:58:19Z</time>
      </trkpt>
      <trkpt lat="44.40081" lon="4.18619">
        <ele>231.81</ele>
        <time>2016-06-05T14:58:34Z</time>
      </trkpt>
      <trkpt lat="44.40077" lon="4.18607">
        <ele>231.81</ele>
        <time>2016-06-05T14:58:44Z</time>
      </trkpt>
      <trkpt lat="44.40068" lon="4.18595">
        <ele>231.81</ele>
        <time>2016-06-05T14:58:59Z</time>
      </trkpt>
      <trkpt lat="44.40059" lon="4.18593">
        <ele>230.85</ele>
        <time>2016-06-05T14:59:11Z</time>
      </trkpt>
      <trkpt lat="44.40046" lon="4.18596">
        <ele>230.37</ele>
        <time>2016-06-05T14:59:24Z</time>
      </trkpt>
      <trkpt lat="44.40041" lon="4.18602">
        <ele>230.37</ele>
        <time>2016-06-05T14:59:31Z</time>
      </trkpt>
      <trkpt lat="44.40031" lon="4.1861">
        <ele>230.85</ele>
        <time>2016-06-05T14:59:45Z</time>
      </trkpt>
      <trkpt lat="44.40025" lon="4.18608">
        <ele>230.85</ele>
        <time>2016-06-05T14:59:54Z</time>
      </trkpt>
      <trkpt lat="44.40013" lon="4.18599">
        <ele>230.85</ele>
        <time>2016-06-05T15:00:07Z</time>
      </trkpt>
      <trkpt lat="44.40012" lon="4.18595">
        <ele>230.37</ele>
        <time>2016-06-05T15:00:10Z</time>
      </trkpt>
      <trkpt lat="44.40003" lon="4.18581">
        <ele>229.89</ele>
        <time>2016-06-05T15:00:24Z</time>
      </trkpt>
      <trkpt lat="44.39999" lon="4.18569">
        <ele>229.41</ele>
        <time>2016-06-05T15:00:38Z</time>
      </trkpt>
      <trkpt lat="44.39997" lon="4.18556">
        <ele>228.45</ele>
        <time>2016-06-05T15:00:51Z</time>
      </trkpt>
      <trkpt lat="44.39998" lon="4.18539">
        <ele>229.41</ele>
        <time>2016-06-05T15:01:04Z</time>
      </trkpt>
      <trkpt lat="44.40001" lon="4.18523">
        <ele>231.33</ele>
        <time>2016-06-05T15:01:18Z</time>
      </trkpt>
      <trkpt lat="44.40001" lon="4.1852">
        <ele>231.33</ele>
        <time>2016-06-05T15:01:20Z</time>
      </trkpt>
      <trkpt lat="44.40003" lon="4.18508">
        <ele>232.78</ele>
        <time>2016-06-05T15:01:32Z</time>
      </trkpt>
      <trkpt lat="44.40005" lon="4.18499">
        <ele>233.74</ele>
        <time>2016-06-05T15:01:41Z</time>
      </trkpt>
      <trkpt lat="44.40007" lon="4.18487">
        <ele>234.7</ele>
        <time>2016-06-05T15:01:54Z</time>
      </trkpt>
      <trkpt lat="44.40009" lon="4.18473">
        <ele>237.1</ele>
        <time>2016-06-05T15:02:10Z</time>
      </trkpt>
      <trkpt lat="44.40011" lon="4.18458">
        <ele>238.54</ele>
        <time>2016-06-05T15:02:23Z</time>
      </trkpt>
      <trkpt lat="44.40013" lon="4.18449">
        <ele>239.99</ele>
        <time>2016-06-05T15:02:34Z</time>
      </trkpt>
      <trkpt lat="44.40017" lon="4.18433">
        <ele>240.95</ele>
        <time>2016-06-05T15:02:49Z</time>
      </trkpt>
      <trkpt lat="44.40017" lon="4.18416">
        <ele>239.02</ele>
        <time>2016-06-05T15:03:03Z</time>
      </trkpt>
      <trkpt lat="44.40015" lon="4.18399">
        <ele>238.06</ele>
        <time>2016-06-05T15:03:15Z</time>
      </trkpt>
      <trkpt lat="44.40007" lon="4.18383">
        <ele>238.06</ele>
        <time>2016-06-05T15:03:31Z</time>
      </trkpt>
      <trkpt lat="44.40005" lon="4.18382">
        <ele>238.06</ele>
        <time>2016-06-05T15:03:33Z</time>
      </trkpt>
      <trkpt lat="44.4" lon="4.18366">
        <ele>238.54</ele>
        <time>2016-06-05T15:03:48Z</time>
      </trkpt>
      <trkpt lat="44.39993" lon="4.18352">
        <ele>239.51</ele>
        <time>2016-06-05T15:04:01Z</time>
      </trkpt>
      <trkpt lat="44.39984" lon="4.18346">
        <ele>239.51</ele>
        <time>2016-06-05T15:04:15Z</time>
      </trkpt>
      <trkpt lat="44.39977" lon="4.18341">
        <ele>238.54</ele>
        <time>2016-06-05T15:04:28Z</time>
      </trkpt>
      <trkpt lat="44.39967" lon="4.18333">
        <ele>236.14</ele>
        <time>2016-06-05T15:04:43Z</time>
      </trkpt>
      <trkpt lat="44.39959" lon="4.18324">
        <ele>235.66</ele>
        <time>2016-06-05T15:04:54Z</time>
      </trkpt>
      <trkpt lat="44.39957" lon="4.18315">
        <ele>234.7</ele>
        <time>2016-06-05T15:05:06Z</time>
      </trkpt>
      <trkpt lat="44.39955" lon="4.18305">
        <ele>233.26</ele>
        <time>2016-06-05T15:05:21Z</time>
      </trkpt>
      <trkpt lat="44.39948" lon="4.1829">
        <ele>231.33</ele>
        <time>2016-06-05T15:05:39Z</time>
      </trkpt>
      <trkpt lat="44.39944" lon="4.18283">
        <ele>229.41</ele>
        <time>2016-06-05T15:05:54Z</time>
      </trkpt>
      <trkpt lat="44.39937" lon="4.18275">
        <ele>228.45</ele>
        <time>2016-06-05T15:06:07Z</time>
      </trkpt>
      <trkpt lat="44.39926" lon="4.18257">
        <ele>227.97</ele>
        <time>2016-06-05T15:06:22Z</time>
      </trkpt>
      <trkpt lat="44.39916" lon="4.1824">
        <ele>227.97</ele>
        <time>2016-06-05T15:06:36Z</time>
      </trkpt>
      <trkpt lat="44.39914" lon="4.18236">
        <ele>227.97</ele>
        <time>2016-06-05T15:06:39Z</time>
      </trkpt>
      <trkpt lat="44.39903" lon="4.18217">
        <ele>227.97</ele>
        <time>2016-06-05T15:06:56Z</time>
      </trkpt>
      <trkpt lat="44.39898" lon="4.18199">
        <ele>228.45</ele>
        <time>2016-06-05T15:07:10Z</time>
      </trkpt>
      <trkpt lat="44.39889" lon="4.18187">
        <ele>227.49</ele>
        <time>2016-06-05T15:07:24Z</time>
      </trkpt>
      <trkpt lat="44.39882" lon="4.18175">
        <ele>226.53</ele>
        <time>2016-06-05T15:07:38Z</time>
      </trkpt>
      <trkpt lat="44.39878" lon="4.18167">
        <ele>225.57</ele>
        <time>2016-06-05T15:07:50Z</time>
      </trkpt>
      <trkpt lat="44.39876" lon="4.18152">
        <ele>225.09</ele>
        <time>2016-06-05T15:08:01Z</time>
      </trkpt>
      <trkpt lat="44.39874" lon="4.1814">
        <ele>224.61</ele>
        <time>2016-06-05T15:08:14Z</time>
      </trkpt>
      <trkpt lat="44.39866" lon="4.18132">
        <ele>224.12</ele>
        <time>2016-06-05T15:08:26Z</time>
      </trkpt>
      <trkpt lat="44.3985" lon="4.18126">
        <ele>224.61</ele>
        <time>2016-06-05T15:08:40Z</time>
      </trkpt>
      <trkpt lat="44.39835" lon="4.1812">
        <ele>224.61</ele>
        <time>2016-06-05T15:08:54Z</time>
      </trkpt>
      <trkpt lat="44.39823" lon="4.18119">
        <ele>224.61</ele>
        <time>2016-06-05T15:09:08Z</time>
      </trkpt>
      <trkpt lat="44.39811" lon="4.18118">
        <ele>225.57</ele>
        <time>2016-06-05T15:09:22Z</time>
      </trkpt>
      <trkpt lat="44.39801" lon="4.18118">
        <ele>226.05</ele>
        <time>2016-06-05T15:09:35Z</time>
      </trkpt>
      <trkpt lat="44.39794" lon="4.18114">
        <ele>226.53</ele>
        <time>2016-06-05T15:09:49Z</time>
      </trkpt>
      <trkpt lat="44.39783" lon="4.18107">
        <ele>227.01</ele>
        <time>2016-06-05T15:10:02Z</time>
      </trkpt>
      <trkpt lat="44.39774" lon="4.18104">
        <ele>227.49</ele>
        <time>2016-06-05T15:10:14Z</time>
      </trkpt>
      <trkpt lat="44.39764" lon="4.18104">
        <ele>227.49</ele>
        <time>2016-06-05T15:10:26Z</time>
      </trkpt>
      <trkpt lat="44.39756" lon="4.18101">
        <ele>227.97</ele>
        <time>2016-06-05T15:10:38Z</time>
      </trkpt>
      <trkpt lat="44.39747" lon="4.18094">
        <ele>227.97</ele>
        <time>2016-06-05T15:10:49Z</time>
      </trkpt>
      <trkpt lat="44.39733" lon="4.18093">
        <ele>227.97</ele>
        <time>2016-06-05T15:11:00Z</time>
      </trkpt>
      <trkpt lat="44.39723" lon="4.18092">
        <ele>227.97</ele>
        <time>2016-06-05T15:11:13Z</time>
      </trkpt>
      <trkpt lat="44.39714" lon="4.18087">
        <ele>227.97</ele>
        <time>2016-06-05T15:11:25Z</time>
      </trkpt>
      <trkpt lat="44.39704" lon="4.18074">
        <ele>227.01</ele>
        <time>2016-06-05T15:11:40Z</time>
      </trkpt>
      <trkpt lat="44.39699" lon="4.18068">
        <ele>226.53</ele>
        <time>2016-06-05T15:11:52Z</time>
      </trkpt>
      <trkpt lat="44.39697" lon="4.18061">
        <ele>226.05</ele>
        <time>2016-06-05T15:12:03Z</time>
      </trkpt>
      <trkpt lat="44.39695" lon="4.18042">
        <ele>225.57</ele>
        <time>2016-06-05T15:12:16Z</time>
      </trkpt>
      <trkpt lat="44.3969" lon="4.18026">
        <ele>225.57</ele>
        <time>2016-06-05T15:12:30Z</time>
      </trkpt>
      <trkpt lat="44.39689" lon="4.18023">
        <ele>224.61</ele>
        <time>2016-06-05T15:12:33Z</time>
      </trkpt>
      <trkpt lat="44.39684" lon="4.18005">
        <ele>224.12</ele>
        <time>2016-06-05T15:12:47Z</time>
      </trkpt>
      <trkpt lat="44.39682" lon="4.1799">
        <ele>223.16</ele>
        <time>2016-06-05T15:13:01Z</time>
      </trkpt>
      <trkpt lat="44.39681" lon="4.17979">
        <ele>221.72</ele>
        <time>2016-06-05T15:13:11Z</time>
      </trkpt>
      <trkpt lat="44.39678" lon="4.17967">
        <ele>221.24</ele>
        <time>2016-06-05T15:13:21Z</time>
      </trkpt>
      <trkpt lat="44.39674" lon="4.17948">
        <ele>221.24</ele>
        <time>2016-06-05T15:13:35Z</time>
      </trkpt>
      <trkpt lat="44.39664" lon="4.17932">
        <ele>221.24</ele>
        <time>2016-06-05T15:13:50Z</time>
      </trkpt>
      <trkpt lat="44.39658" lon="4.17919">
        <ele>221.72</ele>
        <time>2016-06-05T15:14:02Z</time>
      </trkpt>
      <trkpt lat="44.39656" lon="4.17902">
        <ele>223.16</ele>
        <time>2016-06-05T15:14:16Z</time>
      </trkpt>
      <trkpt lat="44.39661" lon="4.1789">
        <ele>225.09</ele>
        <time>2016-06-05T15:14:32Z</time>
      </trkpt>
      <trkpt lat="44.39669" lon="4.17882">
        <ele>226.53</ele>
        <time>2016-06-05T15:14:46Z</time>
      </trkpt>
      <trkpt lat="44.39675" lon="4.17878">
        <ele>226.05</ele>
        <time>2016-06-05T15:15:00Z</time>
      </trkpt>
      <trkpt lat="44.39682" lon="4.17866">
        <ele>227.49</ele>
        <time>2016-06-05T15:15:13Z</time>
      </trkpt>
      <trkpt lat="44.39687" lon="4.17851">
        <ele>229.89</ele>
        <time>2016-06-05T15:15:26Z</time>
      </trkpt>
      <trkpt lat="44.39697" lon="4.17841">
        <ele>230.85</ele>
        <time>2016-06-05T15:15:41Z</time>
      </trkpt>
      <trkpt lat="44.39707" lon="4.17829">
        <ele>231.81</ele>
        <time>2016-06-05T15:15:57Z</time>
      </trkpt>
      <trkpt lat="44.39716" lon="4.17818">
        <ele>233.26</ele>
        <time>2016-06-05T15:16:12Z</time>
      </trkpt>
      <trkpt lat="44.39721" lon="4.17807">
        <ele>234.22</ele>
        <time>2016-06-05T15:16:23Z</time>
      </trkpt>
      <trkpt lat="44.39723" lon="4.17802">
        <ele>234.22</ele>
        <time>2016-06-05T15:16:38Z</time>
      </trkpt>
      <trkpt lat="44.39727" lon="4.17791">
        <ele>234.7</ele>
        <time>2016-06-05T15:16:52Z</time>
      </trkpt>
      <trkpt lat="44.39728" lon="4.17784">
        <ele>235.18</ele>
        <time>2016-06-05T15:16:57Z</time>
      </trkpt>
      <trkpt lat="44.39735" lon="4.17766">
        <ele>236.14</ele>
        <time>2016-06-05T15:17:14Z</time>
      </trkpt>
      <trkpt lat="44.3974" lon="4.17756">
        <ele>237.1</ele>
        <time>2016-06-05T15:17:26Z</time>
      </trkpt>
      <trkpt lat="44.39747" lon="4.17755">
        <ele>238.54</ele>
        <time>2016-06-05T15:17:38Z</time>
      </trkpt>
      <trkpt lat="44.39761" lon="4.17748">
        <ele>239.51</ele>
        <time>2016-06-05T15:17:53Z</time>
      </trkpt>
      <trkpt lat="44.39767" lon="4.1774">
        <ele>239.99</ele>
        <time>2016-06-05T15:18:02Z</time>
      </trkpt>
      <trkpt lat="44.39775" lon="4.17725">
        <ele>239.99</ele>
        <time>2016-06-05T15:18:15Z</time>
      </trkpt>
      <trkpt lat="44.39777" lon="4.17721">
        <ele>240.47</ele>
        <time>2016-06-05T15:18:31Z</time>
      </trkpt>
      <trkpt lat="44.39783" lon="4.1772">
        <ele>239.02</ele>
        <time>2016-06-05T15:18:43Z</time>
      </trkpt>
      <trkpt lat="44.39789" lon="4.17713">
        <ele>238.06</ele>
        <time>2016-06-05T15:18:54Z</time>
      </trkpt>
      <trkpt lat="44.39795" lon="4.17701">
        <ele>237.58</ele>
        <time>2016-06-05T15:19:07Z</time>
      </trkpt>
      <trkpt lat="44.39802" lon="4.17692">
        <ele>237.58</ele>
        <time>2016-06-05T15:19:16Z</time>
      </trkpt>
      <trkpt lat="44.39814" lon="4.17678">
        <ele>238.06</ele>
        <time>2016-06-05T15:19:29Z</time>
      </trkpt>
      <trkpt lat="44.3982" lon="4.17666">
        <ele>237.58</ele>
        <time>2016-06-05T15:19:41Z</time>
      </trkpt>
      <trkpt lat="44.39828" lon="4.17655">
        <ele>237.58</ele>
        <time>2016-06-05T15:19:50Z</time>
      </trkpt>
      <trkpt lat="44.3983" lon="4.17651">
        <ele>238.06</ele>
        <time>2016-06-05T15:19:53Z</time>
      </trkpt>
      <trkpt lat="44.39837" lon="4.17634">
        <ele>238.54</ele>
        <time>2016-06-05T15:20:07Z</time>
      </trkpt>
      <trkpt lat="44.39841" lon="4.17618">
        <ele>239.51</ele>
        <time>2016-06-05T15:20:20Z</time>
      </trkpt>
      <trkpt lat="44.39843" lon="4.176">
        <ele>239.99</ele>
        <time>2016-06-05T15:20:34Z</time>
      </trkpt>
      <trkpt lat="44.39845" lon="4.17581">
        <ele>240.95</ele>
        <time>2016-06-05T15:20:49Z</time>
      </trkpt>
      <trkpt lat="44.39841" lon="4.17569">
        <ele>241.91</ele>
        <time>2016-06-05T15:21:00Z</time>
      </trkpt>
      <trkpt lat="44.39844" lon="4.17557">
        <ele>243.35</ele>
        <time>2016-06-05T15:21:08Z</time>
      </trkpt>
      <trkpt lat="44.3985" lon="4.1754">
        <ele>244.31</ele>
        <time>2016-06-05T15:21:21Z</time>
      </trkpt>
      <trkpt lat="44.39855" lon="4.1753">
        <ele>244.31</ele>
        <time>2016-06-05T15:21:29Z</time>
      </trkpt>
      <trkpt lat="44.39859" lon="4.1752">
        <ele>244.31</ele>
        <time>2016-06-05T15:21:37Z</time>
      </trkpt>
      <trkpt lat="44.39866" lon="4.17513">
        <ele>244.79</ele>
        <time>2016-06-05T15:21:46Z</time>
      </trkpt>
      <trkpt lat="44.39874" lon="4.17506">
        <ele>246.23</ele>
        <time>2016-06-05T15:21:57Z</time>
      </trkpt>
      <trkpt lat="44.39885" lon="4.17501">
        <ele>247.2</ele>
        <time>2016-06-05T15:22:11Z</time>
      </trkpt>
      <trkpt lat="44.39894" lon="4.17499">
        <ele>247.68</ele>
        <time>2016-06-05T15:22:25Z</time>
      </trkpt>
      <trkpt lat="44.39895" lon="4.17498">
        <ele>247.68</ele>
        <time>2016-06-05T15:22:51Z</time>
      </trkpt>
      <trkpt lat="44.39895" lon="4.17498">
        <ele>247.2</ele>
        <time>2016-06-05T15:23:17Z</time>
      </trkpt>
      <trkpt lat="44.39896" lon="4.17498">
        <ele>247.2</ele>
        <time>2016-06-05T15:23:36Z</time>
      </trkpt>
      <trkpt lat="44.39896" lon="4.17498">
        <ele>247.2</ele>
        <time>2016-06-05T15:24:00Z</time>
      </trkpt>
      <trkpt lat="44.39904" lon="4.17499">
        <ele>247.2</ele>
        <time>2016-06-05T15:24:14Z</time>
      </trkpt>
      <trkpt lat="44.39914" lon="4.17499">
        <ele>247.2</ele>
        <time>2016-06-05T15:24:28Z</time>
      </trkpt>
      <trkpt lat="44.39921" lon="4.17498">
        <ele>247.2</ele>
        <time>2016-06-05T15:24:35Z</time>
      </trkpt>
      <trkpt lat="44.39937" lon="4.17494">
        <ele>247.2</ele>
        <time>2016-06-05T15:24:51Z</time>
      </trkpt>
      <trkpt lat="44.39951" lon="4.17493">
        <ele>246.23</ele>
        <time>2016-06-05T15:25:05Z</time>
      </trkpt>
      <trkpt lat="44.39961" lon="4.17491">
        <ele>245.27</ele>
        <time>2016-06-05T15:25:17Z</time>
      </trkpt>
      <trkpt lat="44.39971" lon="4.17483">
        <ele>244.79</ele>
        <time>2016-06-05T15:25:31Z</time>
      </trkpt>
      <trkpt lat="44.39981" lon="4.1748">
        <ele>245.27</ele>
        <time>2016-06-05T15:25:45Z</time>
      </trkpt>
      <trkpt lat="44.39995" lon="4.17472">
        <ele>245.27</ele>
        <time>2016-06-05T15:25:57Z</time>
      </trkpt>
      <trkpt lat="44.40004" lon="4.17469">
        <ele>245.27</ele>
        <time>2016-06-05T15:26:06Z</time>
      </trkpt>
      <trkpt lat="44.40008" lon="4.17469">
        <ele>245.27</ele>
        <time>2016-06-05T15:26:09Z</time>
      </trkpt>
      <trkpt lat="44.40023" lon="4.17464">
        <ele>246.23</ele>
        <time>2016-06-05T15:26:23Z</time>
      </trkpt>
      <trkpt lat="44.4004" lon="4.17461">
        <ele>246.23</ele>
        <time>2016-06-05T15:26:39Z</time>
      </trkpt>
      <trkpt lat="44.40042" lon="4.17461">
        <ele>246.23</ele>
        <time>2016-06-05T15:26:41Z</time>
      </trkpt>
      <trkpt lat="44.40054" lon="4.17457">
        <ele>246.72</ele>
        <time>2016-06-05T15:26:55Z</time>
      </trkpt>
      <trkpt lat="44.40062" lon="4.17446">
        <ele>247.2</ele>
        <time>2016-06-05T15:27:08Z</time>
      </trkpt>
      <trkpt lat="44.40076" lon="4.1744">
        <ele>247.2</ele>
        <time>2016-06-05T15:27:23Z</time>
      </trkpt>
      <trkpt lat="44.40087" lon="4.17434">
        <ele>246.72</ele>
        <time>2016-06-05T15:27:37Z</time>
      </trkpt>
      <trkpt lat="44.40096" lon="4.17431">
        <ele>245.27</ele>
        <time>2016-06-05T15:27:50Z</time>
      </trkpt>
      <trkpt lat="44.4011" lon="4.17427">
        <ele>244.79</ele>
        <time>2016-06-05T15:28:03Z</time>
      </trkpt>
      <trkpt lat="44.40119" lon="4.17414">
        <ele>244.79</ele>
        <time>2016-06-05T15:28:19Z</time>
      </trkpt>
      <trkpt lat="44.40122" lon="4.17402">
        <ele>245.75</ele>
        <time>2016-06-05T15:28:31Z</time>
      </trkpt>
      <trkpt lat="44.40125" lon="4.17388">
        <ele>244.79</ele>
        <time>2016-06-05T15:28:45Z</time>
      </trkpt>
      <trkpt lat="44.4013" lon="4.17385">
        <ele>244.31</ele>
        <time>2016-06-05T15:28:59Z</time>
      </trkpt>
      <trkpt lat="44.4013" lon="4.17386">
        <ele>244.79</ele>
        <time>2016-06-05T15:29:16Z</time>
      </trkpt>
      <trkpt lat="44.4013" lon="4.17382">
        <ele>244.31</ele>
        <time>2016-06-05T15:29:29Z</time>
      </trkpt>
      <trkpt lat="44.40131" lon="4.1737">
        <ele>243.35</ele>
        <time>2016-06-05T15:29:43Z</time>
      </trkpt>
      <trkpt lat="44.4013" lon="4.17369">
        <ele>243.35</ele>
        <time>2016-06-05T15:29:45Z</time>
      </trkpt>
      <trkpt lat="44.40134" lon="4.17357">
        <ele>242.39</ele>
        <time>2016-06-05T15:30:00Z</time>
      </trkpt>
      <trkpt lat="44.40134" lon="4.17358">
        <ele>242.87</ele>
        <time>2016-06-05T15:30:03Z</time>
      </trkpt>
      <trkpt lat="44.40131" lon="4.17371">
        <ele>243.83</ele>
        <time>2016-06-05T15:30:16Z</time>
      </trkpt>
      <trkpt lat="44.4013" lon="4.17379">
        <ele>245.27</ele>
        <time>2016-06-05T15:30:30Z</time>
      </trkpt>
      <trkpt lat="44.40139" lon="4.1738">
        <ele>246.23</ele>
        <time>2016-06-05T15:30:43Z</time>
      </trkpt>
      <trkpt lat="44.40142" lon="4.1737">
        <ele>246.72</ele>
        <time>2016-06-05T15:30:57Z</time>
      </trkpt>
      <trkpt lat="44.4015" lon="4.17372">
        <ele>247.68</ele>
        <time>2016-06-05T15:31:12Z</time>
      </trkpt>
      <trkpt lat="44.40159" lon="4.17373">
        <ele>248.16</ele>
        <time>2016-06-05T15:31:25Z</time>
      </trkpt>
      <trkpt lat="44.40165" lon="4.17374">
        <ele>248.16</ele>
        <time>2016-06-05T15:31:41Z</time>
      </trkpt>
      <trkpt lat="44.40172" lon="4.17369">
        <ele>248.64</ele>
        <time>2016-06-05T15:31:54Z</time>
      </trkpt>
      <trkpt lat="44.40174" lon="4.17366">
        <ele>248.64</ele>
        <time>2016-06-05T15:32:06Z</time>
      </trkpt>
      <trkpt lat="44.40178" lon="4.17366">
        <ele>249.12</ele>
        <time>2016-06-05T15:32:18Z</time>
      </trkpt>
      <trkpt lat="44.4018" lon="4.17367">
        <ele>249.12</ele>
        <time>2016-06-05T15:32:34Z</time>
      </trkpt>
      <trkpt lat="44.40183" lon="4.17365">
        <ele>249.12</ele>
        <time>2016-06-05T15:32:49Z</time>
      </trkpt>
      <trkpt lat="44.40184" lon="4.17365">
        <ele>248.64</ele>
        <time>2016-06-05T15:33:13Z</time>
      </trkpt>
      <trkpt lat="44.40184" lon="4.17365">
        <ele>248.64</ele>
        <time>2016-06-05T15:33:36Z</time>
      </trkpt>
      <trkpt lat="44.40181" lon="4.17366">
        <ele>248.16</ele>
        <time>2016-06-05T15:33:47Z</time>
      </trkpt>
      <trkpt lat="44.40177" lon="4.17367">
        <ele>248.16</ele>
        <time>2016-06-05T15:34:00Z</time>
      </trkpt>
      <trkpt lat="44.40172" lon="4.17375">
        <ele>248.16</ele>
        <time>2016-06-05T15:34:14Z</time>
      </trkpt>
      <trkpt lat="44.40171" lon="4.17377">
        <ele>248.16</ele>
        <time>2016-06-05T15:34:27Z</time>
      </trkpt>
      <trkpt lat="44.4017" lon="4.17376">
        <ele>248.16</ele>
        <time>2016-06-05T15:35:04Z</time>
      </trkpt>
      <trkpt lat="44.40166" lon="4.17375">
        <ele>247.68</ele>
        <time>2016-06-05T15:35:20Z</time>
      </trkpt>
      <trkpt lat="44.40163" lon="4.17376">
        <ele>247.68</ele>
        <time>2016-06-05T15:35:24Z</time>
      </trkpt>
      <trkpt lat="44.40152" lon="4.17376">
        <ele>246.72</ele>
        <time>2016-06-05T15:35:38Z</time>
      </trkpt>
      <trkpt lat="44.40149" lon="4.17379">
        <ele>246.23</ele>
        <time>2016-06-05T15:35:42Z</time>
      </trkpt>
      <trkpt lat="44.40144" lon="4.17381">
        <ele>245.75</ele>
        <time>2016-06-05T15:35:55Z</time>
      </trkpt>
      <trkpt lat="44.40144" lon="4.17382">
        <ele>245.75</ele>
        <time>2016-06-05T15:35:57Z</time>
      </trkpt>
      <trkpt lat="44.40136" lon="4.17381">
        <ele>244.79</ele>
        <time>2016-06-05T15:36:09Z</time>
      </trkpt>
      <trkpt lat="44.40132" lon="4.17386">
        <ele>243.83</ele>
        <time>2016-06-05T15:36:21Z</time>
      </trkpt>
      <trkpt lat="44.4013" lon="4.17387">
        <ele>244.31</ele>
        <time>2016-06-05T15:36:36Z</time>
      </trkpt>
      <trkpt lat="44.40131" lon="4.17384">
        <ele>243.83</ele>
        <time>2016-06-05T15:36:53Z</time>
      </trkpt>
      <trkpt lat="44.40134" lon="4.17383">
        <ele>243.35</ele>
        <time>2016-06-05T15:37:09Z</time>
      </trkpt>
      <trkpt lat="44.40134" lon="4.17383">
        <ele>243.83</ele>
        <time>2016-06-05T15:37:18Z</time>
      </trkpt>
      <trkpt lat="44.40132" lon="4.17378">
        <ele>243.35</ele>
        <time>2016-06-05T15:37:29Z</time>
      </trkpt>
      <trkpt lat="44.40131" lon="4.17373">
        <ele>242.87</ele>
        <time>2016-06-05T15:37:35Z</time>
      </trkpt>
      <trkpt lat="44.40133" lon="4.17361">
        <ele>241.91</ele>
        <time>2016-06-05T15:37:47Z</time>
      </trkpt>
      <trkpt lat="44.40135" lon="4.17346">
        <ele>240.95</ele>
        <time>2016-06-05T15:38:00Z</time>
      </trkpt>
      <trkpt lat="44.40137" lon="4.17331">
        <ele>239.02</ele>
        <time>2016-06-05T15:38:15Z</time>
      </trkpt>
      <trkpt lat="44.40137" lon="4.1732">
        <ele>237.58</ele>
        <time>2016-06-05T15:38:29Z</time>
      </trkpt>
      <trkpt lat="44.4014" lon="4.17304">
        <ele>236.14</ele>
        <time>2016-06-05T15:38:45Z</time>
      </trkpt>
      <trkpt lat="44.40139" lon="4.17288">
        <ele>235.66</ele>
        <time>2016-06-05T15:38:57Z</time>
      </trkpt>
      <trkpt lat="44.40139" lon="4.17269">
        <ele>235.66</ele>
        <time>2016-06-05T15:39:10Z</time>
      </trkpt>
      <trkpt lat="44.40137" lon="4.17256">
        <ele>235.18</ele>
        <time>2016-06-05T15:39:20Z</time>
      </trkpt>
      <trkpt lat="44.40133" lon="4.17239">
        <ele>235.66</ele>
        <time>2016-06-05T15:39:34Z</time>
      </trkpt>
      <trkpt lat="44.40132" lon="4.17237">
        <ele>236.14</ele>
        <time>2016-06-05T15:39:51Z</time>
      </trkpt>
      <trkpt lat="44.40131" lon="4.17229">
        <ele>236.62</ele>
        <time>2016-06-05T15:40:04Z</time>
      </trkpt>
      <trkpt lat="44.40129" lon="4.17223">
        <ele>236.14</ele>
        <time>2016-06-05T15:40:17Z</time>
      </trkpt>
      <trkpt lat="44.40126" lon="4.17205">
        <ele>235.66</ele>
        <time>2016-06-05T15:40:32Z</time>
      </trkpt>
      <trkpt lat="44.40122" lon="4.17192">
        <ele>235.18</ele>
        <time>2016-06-05T15:40:45Z</time>
      </trkpt>
      <trkpt lat="44.40119" lon="4.17168">
        <ele>234.22</ele>
        <time>2016-06-05T15:41:02Z</time>
      </trkpt>
      <trkpt lat="44.40119" lon="4.17165">
        <ele>234.22</ele>
        <time>2016-06-05T15:41:04Z</time>
      </trkpt>
      <trkpt lat="44.40114" lon="4.17152">
        <ele>234.22</ele>
        <time>2016-06-05T15:41:19Z</time>
      </trkpt>
      <trkpt lat="44.40111" lon="4.1714">
        <ele>234.7</ele>
        <time>2016-06-05T15:41:32Z</time>
      </trkpt>
      <trkpt lat="44.40119" lon="4.17122">
        <ele>236.14</ele>
        <time>2016-06-05T15:41:50Z</time>
      </trkpt>
      <trkpt lat="44.40124" lon="4.17118">
        <ele>236.14</ele>
        <time>2016-06-05T15:41:57Z</time>
      </trkpt>
      <trkpt lat="44.40137" lon="4.17101">
        <ele>237.58</ele>
        <time>2016-06-05T15:42:16Z</time>
      </trkpt>
      <trkpt lat="44.4014" lon="4.17095">
        <ele>238.06</ele>
        <time>2016-06-05T15:42:21Z</time>
      </trkpt>
      <trkpt lat="44.40149" lon="4.17081">
        <ele>239.02</ele>
        <time>2016-06-05T15:42:37Z</time>
      </trkpt>
      <trkpt lat="44.4016" lon="4.17067">
        <ele>240.47</ele>
        <time>2016-06-05T15:42:53Z</time>
      </trkpt>
      <trkpt lat="44.4017" lon="4.17054">
        <ele>241.43</ele>
        <time>2016-06-05T15:43:07Z</time>
      </trkpt>
      <trkpt lat="44.40175" lon="4.17037">
        <ele>243.35</ele>
        <time>2016-06-05T15:43:22Z</time>
      </trkpt>
      <trkpt lat="44.40181" lon="4.17021">
        <ele>244.79</ele>
        <time>2016-06-05T15:43:37Z</time>
      </trkpt>
      <trkpt lat="44.40183" lon="4.17002">
        <ele>246.23</ele>
        <time>2016-06-05T15:43:52Z</time>
      </trkpt>
      <trkpt lat="44.40188" lon="4.16985">
        <ele>247.68</ele>
        <time>2016-06-05T15:44:08Z</time>
      </trkpt>
      <trkpt lat="44.4019" lon="4.16967">
        <ele>249.12</ele>
        <time>2016-06-05T15:44:22Z</time>
      </trkpt>
      <trkpt lat="44.40192" lon="4.16948">
        <ele>250.56</ele>
        <time>2016-06-05T15:44:38Z</time>
      </trkpt>
      <trkpt lat="44.40195" lon="4.16927">
        <ele>251.52</ele>
        <time>2016-06-05T15:44:55Z</time>
      </trkpt>
      <trkpt lat="44.40197" lon="4.16911">
        <ele>252.96</ele>
        <time>2016-06-05T15:45:09Z</time>
      </trkpt>
      <trkpt lat="44.40199" lon="4.16896">
        <ele>253.93</ele>
        <time>2016-06-05T15:45:22Z</time>
      </trkpt>
      <trkpt lat="44.40202" lon="4.16878">
        <ele>254.41</ele>
        <time>2016-06-05T15:45:37Z</time>
      </trkpt>
      <trkpt lat="44.40203" lon="4.16855">
        <ele>254.89</ele>
        <time>2016-06-05T15:45:53Z</time>
      </trkpt>
      <trkpt lat="44.40198" lon="4.16837">
        <ele>255.37</ele>
        <time>2016-06-05T15:46:08Z</time>
      </trkpt>
      <trkpt lat="44.40196" lon="4.16828">
        <ele>254.89</ele>
        <time>2016-06-05T15:46:14Z</time>
      </trkpt>
      <trkpt lat="44.40195" lon="4.16807">
        <ele>254.89</ele>
        <time>2016-06-05T15:46:30Z</time>
      </trkpt>
      <trkpt lat="44.40194" lon="4.16799">
        <ele>254.89</ele>
        <time>2016-06-05T15:46:35Z</time>
      </trkpt>
      <trkpt lat="44.40192" lon="4.16778">
        <ele>254.41</ele>
        <time>2016-06-05T15:46:50Z</time>
      </trkpt>
      <trkpt lat="44.4019" lon="4.16757">
        <ele>254.41</ele>
        <time>2016-06-05T15:47:04Z</time>
      </trkpt>
      <trkpt lat="44.40184" lon="4.16733">
        <ele>254.89</ele>
        <time>2016-06-05T15:47:22Z</time>
      </trkpt>
      <trkpt lat="44.40181" lon="4.1671">
        <ele>255.85</ele>
        <time>2016-06-05T15:47:38Z</time>
      </trkpt>
      <trkpt lat="44.40178" lon="4.16683">
        <ele>256.33</ele>
        <time>2016-06-05T15:47:56Z</time>
      </trkpt>
      <trkpt lat="44.40175" lon="4.16659">
        <ele>255.37</ele>
        <time>2016-06-05T15:48:13Z</time>
      </trkpt>
      <trkpt lat="44.40169" lon="4.16635">
        <ele>255.37</ele>
        <time>2016-06-05T15:48:30Z</time>
      </trkpt>
      <trkpt lat="44.40162" lon="4.16615">
        <ele>254.89</ele>
        <time>2016-06-05T15:48:45Z</time>
      </trkpt>
      <trkpt lat="44.40153" lon="4.16593">
        <ele>254.41</ele>
        <time>2016-06-05T15:49:02Z</time>
      </trkpt>
      <trkpt lat="44.40142" lon="4.16572">
        <ele>254.41</ele>
        <time>2016-06-05T15:49:20Z</time>
      </trkpt>
      <trkpt lat="44.40131" lon="4.16554">
        <ele>254.41</ele>
        <time>2016-06-05T15:49:35Z</time>
      </trkpt>
      <trkpt lat="44.40123" lon="4.16531">
        <ele>253.93</ele>
        <time>2016-06-05T15:49:51Z</time>
      </trkpt>
      <trkpt lat="44.40123" lon="4.16505">
        <ele>253.44</ele>
        <time>2016-06-05T15:50:07Z</time>
      </trkpt>
      <trkpt lat="44.40123" lon="4.16481">
        <ele>253.93</ele>
        <time>2016-06-05T15:50:23Z</time>
      </trkpt>
      <trkpt lat="44.40125" lon="4.16453">
        <ele>253.93</ele>
        <time>2016-06-05T15:50:40Z</time>
      </trkpt>
      <trkpt lat="44.40128" lon="4.16434">
        <ele>253.93</ele>
        <time>2016-06-05T15:50:53Z</time>
      </trkpt>
      <trkpt lat="44.40135" lon="4.16416">
        <ele>252.96</ele>
        <time>2016-06-05T15:51:08Z</time>
      </trkpt>
      <trkpt lat="44.4014" lon="4.1641">
        <ele>253.44</ele>
        <time>2016-06-05T15:51:13Z</time>
      </trkpt>
      <trkpt lat="44.40159" lon="4.1641">
        <ele>253.44</ele>
        <time>2016-06-05T15:51:31Z</time>
      </trkpt>
      <trkpt lat="44.40164" lon="4.16413">
        <ele>252.96</ele>
        <time>2016-06-05T15:51:45Z</time>
      </trkpt>
      <trkpt lat="44.40164" lon="4.16414">
        <ele>252.96</ele>
        <time>2016-06-05T15:52:14Z</time>
      </trkpt>
      <trkpt lat="44.40166" lon="4.16418">
        <ele>252.48</ele>
        <time>2016-06-05T15:52:30Z</time>
      </trkpt>
    </trkseg>
  </trk>
</gpx>